﻿<?xml version="1.0" encoding="UTF-8" standalone="no" ?>
<gpx xmlns="http://www.topografix.com/GPX/1/1" creator="CompeGPS" version="1.1" xmlns:xsi="http://www.w3.org/2001/XMLSchema-instance" xsi:schemaLocation="http://www.topografix.com/GPX/1/1 http://www.topografix.com/GPX/1/1/gpx.xsd http://www.garmin.com/xmlschemas/GpxExtensions/v3 http://www.garmin.com/xmlschemas/GpxExtensionsv3.xsd http://www.garmin.com/xmlschemas/TrackPointExtension/v1 http://www.garmin.com/xmlschemas/TrackPointExtensionv1.xsd" xmlns:gpxtpx="http://www.garmin.com/xmlschemas/TrackPointExtension/v1">
  <metadata>
    <link href="http://www.compegps.com">
      <text>CompeGPS TEAM, SL</text>
    </link>
    <time>2015-08-02T17:30:37Z</time>
    <bounds maxlat="43.431255" maxlon="1.721627" minlat="43.404062" minlon="1.698068"/>
  </metadata>
  <trk>
    <name>deux moulins</name>
    <trkseg>
      <trkpt lat="43.404062" lon="1.720024">
        <ele>185.1</ele>
        <time>2015-08-02T13:18:21Z</time>
      </trkpt>
      <trkpt lat="43.404143" lon="1.720099">
        <ele>185.6</ele>
        <time>2015-08-02T13:18:36Z</time>
      </trkpt>
      <trkpt lat="43.404230" lon="1.720186">
        <ele>185.4</ele>
        <time>2015-08-02T13:18:41Z</time>
      </trkpt>
      <trkpt lat="43.404316" lon="1.720272">
        <ele>186.8</ele>
        <time>2015-08-02T13:18:46Z</time>
      </trkpt>
      <trkpt lat="43.404398" lon="1.720334">
        <ele>187.8</ele>
        <time>2015-08-02T13:18:50Z</time>
      </trkpt>
      <trkpt lat="43.404487" lon="1.720392">
        <ele>187.8</ele>
        <time>2015-08-02T13:18:54Z</time>
      </trkpt>
      <trkpt lat="43.404592" lon="1.720454">
        <ele>187.4</ele>
        <time>2015-08-02T13:18:59Z</time>
      </trkpt>
      <trkpt lat="43.404698" lon="1.720498">
        <ele>186.1</ele>
        <time>2015-08-02T13:19:03Z</time>
      </trkpt>
      <trkpt lat="43.404809" lon="1.720518">
        <ele>184.7</ele>
        <time>2015-08-02T13:19:07Z</time>
      </trkpt>
      <trkpt lat="43.404927" lon="1.720533">
        <ele>183.1</ele>
        <time>2015-08-02T13:19:12Z</time>
      </trkpt>
      <trkpt lat="43.405017" lon="1.720549">
        <ele>182.2</ele>
        <time>2015-08-02T13:19:15Z</time>
      </trkpt>
      <trkpt lat="43.405124" lon="1.720569">
        <ele>181.7</ele>
        <time>2015-08-02T13:19:18Z</time>
      </trkpt>
      <trkpt lat="43.405214" lon="1.720601">
        <ele>181.7</ele>
        <time>2015-08-02T13:19:21Z</time>
      </trkpt>
      <trkpt lat="43.405302" lon="1.720641">
        <ele>182.1</ele>
        <time>2015-08-02T13:19:26Z</time>
      </trkpt>
      <trkpt lat="43.405394" lon="1.720672">
        <ele>182.8</ele>
        <time>2015-08-02T13:19:50Z</time>
      </trkpt>
      <trkpt lat="43.405498" lon="1.720701">
        <ele>182.6</ele>
        <time>2015-08-02T13:19:53Z</time>
      </trkpt>
      <trkpt lat="43.405594" lon="1.720713">
        <ele>182.1</ele>
        <time>2015-08-02T13:19:56Z</time>
      </trkpt>
      <trkpt lat="43.405686" lon="1.720677">
        <ele>181.5</ele>
        <time>2015-08-02T13:19:59Z</time>
      </trkpt>
      <trkpt lat="43.405760" lon="1.720545">
        <ele>180.7</ele>
        <time>2015-08-02T13:20:02Z</time>
      </trkpt>
      <trkpt lat="43.405855" lon="1.720452">
        <ele>179.8</ele>
        <time>2015-08-02T13:20:05Z</time>
      </trkpt>
      <trkpt lat="43.405957" lon="1.720464">
        <ele>178.9</ele>
        <time>2015-08-02T13:20:08Z</time>
      </trkpt>
      <trkpt lat="43.406056" lon="1.720508">
        <ele>178.2</ele>
        <time>2015-08-02T13:20:11Z</time>
      </trkpt>
      <trkpt lat="43.406149" lon="1.720554">
        <ele>178.5</ele>
        <time>2015-08-02T13:20:14Z</time>
      </trkpt>
      <trkpt lat="43.406250" lon="1.720605">
        <ele>178.8</ele>
        <time>2015-08-02T13:20:18Z</time>
      </trkpt>
      <trkpt lat="43.406348" lon="1.720638">
        <ele>177.8</ele>
        <time>2015-08-02T13:20:23Z</time>
      </trkpt>
      <trkpt lat="43.406435" lon="1.720678">
        <ele>178.6</ele>
        <time>2015-08-02T13:20:27Z</time>
      </trkpt>
      <trkpt lat="43.406533" lon="1.720729">
        <ele>180.0</ele>
        <time>2015-08-02T13:20:32Z</time>
      </trkpt>
      <trkpt lat="43.406621" lon="1.720779">
        <ele>181.4</ele>
        <time>2015-08-02T13:20:36Z</time>
      </trkpt>
      <trkpt lat="43.406709" lon="1.720826">
        <ele>180.8</ele>
        <time>2015-08-02T13:20:40Z</time>
      </trkpt>
      <trkpt lat="43.406814" lon="1.720868">
        <ele>182.2</ele>
        <time>2015-08-02T13:20:45Z</time>
      </trkpt>
      <trkpt lat="43.406909" lon="1.720910">
        <ele>182.8</ele>
        <time>2015-08-02T13:20:49Z</time>
      </trkpt>
      <trkpt lat="43.407018" lon="1.720958">
        <ele>182.1</ele>
        <time>2015-08-02T13:20:53Z</time>
      </trkpt>
      <trkpt lat="43.407104" lon="1.720994">
        <ele>181.4</ele>
        <time>2015-08-02T13:20:56Z</time>
      </trkpt>
      <trkpt lat="43.407195" lon="1.721036">
        <ele>181.2</ele>
        <time>2015-08-02T13:20:59Z</time>
      </trkpt>
      <trkpt lat="43.407276" lon="1.721079">
        <ele>181.1</ele>
        <time>2015-08-02T13:21:02Z</time>
      </trkpt>
      <trkpt lat="43.407368" lon="1.721125">
        <ele>181.6</ele>
        <time>2015-08-02T13:21:06Z</time>
      </trkpt>
      <trkpt lat="43.407465" lon="1.721176">
        <ele>181.9</ele>
        <time>2015-08-02T13:21:11Z</time>
      </trkpt>
      <trkpt lat="43.407548" lon="1.721219">
        <ele>182.7</ele>
        <time>2015-08-02T13:21:15Z</time>
      </trkpt>
      <trkpt lat="43.407639" lon="1.721254">
        <ele>183.4</ele>
        <time>2015-08-02T13:21:19Z</time>
      </trkpt>
      <trkpt lat="43.407737" lon="1.721291">
        <ele>182.8</ele>
        <time>2015-08-02T13:21:23Z</time>
      </trkpt>
      <trkpt lat="43.407833" lon="1.721332">
        <ele>182.9</ele>
        <time>2015-08-02T13:21:27Z</time>
      </trkpt>
      <trkpt lat="43.407922" lon="1.721365">
        <ele>183.3</ele>
        <time>2015-08-02T13:21:31Z</time>
      </trkpt>
      <trkpt lat="43.408032" lon="1.721403">
        <ele>183.4</ele>
        <time>2015-08-02T13:21:36Z</time>
      </trkpt>
      <trkpt lat="43.408138" lon="1.721452">
        <ele>183.9</ele>
        <time>2015-08-02T13:21:41Z</time>
      </trkpt>
      <trkpt lat="43.408238" lon="1.721492">
        <ele>184.6</ele>
        <time>2015-08-02T13:21:46Z</time>
      </trkpt>
      <trkpt lat="43.408337" lon="1.721546">
        <ele>185.3</ele>
        <time>2015-08-02T13:21:51Z</time>
      </trkpt>
      <trkpt lat="43.408433" lon="1.721593">
        <ele>186.0</ele>
        <time>2015-08-02T13:21:56Z</time>
      </trkpt>
      <trkpt lat="43.408521" lon="1.721627">
        <ele>187.2</ele>
        <time>2015-08-02T13:22:01Z</time>
      </trkpt>
      <trkpt lat="43.408603" lon="1.721549">
        <ele>187.7</ele>
        <time>2015-08-02T13:22:07Z</time>
      </trkpt>
      <trkpt lat="43.408639" lon="1.721408">
        <ele>187.2</ele>
        <time>2015-08-02T13:22:11Z</time>
      </trkpt>
      <trkpt lat="43.408662" lon="1.721287">
        <ele>187.2</ele>
        <time>2015-08-02T13:22:14Z</time>
      </trkpt>
      <trkpt lat="43.408687" lon="1.721157">
        <ele>186.4</ele>
        <time>2015-08-02T13:22:17Z</time>
      </trkpt>
      <trkpt lat="43.408715" lon="1.721017">
        <ele>186.0</ele>
        <time>2015-08-02T13:22:20Z</time>
      </trkpt>
      <trkpt lat="43.408741" lon="1.720863">
        <ele>184.8</ele>
        <time>2015-08-02T13:22:23Z</time>
      </trkpt>
      <trkpt lat="43.408769" lon="1.720691">
        <ele>184.0</ele>
        <time>2015-08-02T13:22:26Z</time>
      </trkpt>
      <trkpt lat="43.408800" lon="1.720506">
        <ele>182.8</ele>
        <time>2015-08-02T13:22:29Z</time>
      </trkpt>
      <trkpt lat="43.408825" lon="1.720373">
        <ele>181.3</ele>
        <time>2015-08-02T13:22:31Z</time>
      </trkpt>
      <trkpt lat="43.408848" lon="1.720227">
        <ele>179.7</ele>
        <time>2015-08-02T13:22:33Z</time>
      </trkpt>
      <trkpt lat="43.408867" lon="1.720085">
        <ele>179.2</ele>
        <time>2015-08-02T13:22:35Z</time>
      </trkpt>
      <trkpt lat="43.408886" lon="1.719947">
        <ele>178.6</ele>
        <time>2015-08-02T13:22:37Z</time>
      </trkpt>
      <trkpt lat="43.408905" lon="1.719811">
        <ele>177.4</ele>
        <time>2015-08-02T13:22:39Z</time>
      </trkpt>
      <trkpt lat="43.408941" lon="1.719661">
        <ele>177.4</ele>
        <time>2015-08-02T13:22:42Z</time>
      </trkpt>
      <trkpt lat="43.409017" lon="1.719604">
        <ele>177.5</ele>
        <time>2015-08-02T13:22:45Z</time>
      </trkpt>
      <trkpt lat="43.409120" lon="1.719623">
        <ele>179.0</ele>
        <time>2015-08-02T13:22:49Z</time>
      </trkpt>
      <trkpt lat="43.409221" lon="1.719649">
        <ele>180.9</ele>
        <time>2015-08-02T13:22:54Z</time>
      </trkpt>
      <trkpt lat="43.409321" lon="1.719671">
        <ele>180.4</ele>
        <time>2015-08-02T13:22:59Z</time>
      </trkpt>
      <trkpt lat="43.409425" lon="1.719708">
        <ele>179.9</ele>
        <time>2015-08-02T13:23:04Z</time>
      </trkpt>
      <trkpt lat="43.409520" lon="1.719727">
        <ele>179.8</ele>
        <time>2015-08-02T13:23:08Z</time>
      </trkpt>
      <trkpt lat="43.409633" lon="1.719752">
        <ele>178.7</ele>
        <time>2015-08-02T13:23:13Z</time>
      </trkpt>
      <trkpt lat="43.409732" lon="1.719771">
        <ele>178.4</ele>
        <time>2015-08-02T13:23:17Z</time>
      </trkpt>
      <trkpt lat="43.409823" lon="1.719794">
        <ele>178.2</ele>
        <time>2015-08-02T13:23:21Z</time>
      </trkpt>
      <trkpt lat="43.409931" lon="1.719823">
        <ele>179.2</ele>
        <time>2015-08-02T13:23:26Z</time>
      </trkpt>
      <trkpt lat="43.410041" lon="1.719845">
        <ele>179.4</ele>
        <time>2015-08-02T13:23:31Z</time>
      </trkpt>
      <trkpt lat="43.410138" lon="1.719872">
        <ele>179.5</ele>
        <time>2015-08-02T13:23:36Z</time>
      </trkpt>
      <trkpt lat="43.410242" lon="1.719906">
        <ele>178.2</ele>
        <time>2015-08-02T13:23:41Z</time>
      </trkpt>
      <trkpt lat="43.410354" lon="1.719930">
        <ele>177.4</ele>
        <time>2015-08-02T13:23:45Z</time>
      </trkpt>
      <trkpt lat="43.410460" lon="1.719961">
        <ele>176.9</ele>
        <time>2015-08-02T13:23:48Z</time>
      </trkpt>
      <trkpt lat="43.410575" lon="1.719940">
        <ele>176.7</ele>
        <time>2015-08-02T13:23:51Z</time>
      </trkpt>
      <trkpt lat="43.410638" lon="1.719815">
        <ele>175.6</ele>
        <time>2015-08-02T13:23:54Z</time>
      </trkpt>
      <trkpt lat="43.410669" lon="1.719673">
        <ele>174.6</ele>
        <time>2015-08-02T13:23:57Z</time>
      </trkpt>
      <trkpt lat="43.410711" lon="1.719534">
        <ele>174.6</ele>
        <time>2015-08-02T13:24:01Z</time>
      </trkpt>
      <trkpt lat="43.410802" lon="1.719505">
        <ele>174.0</ele>
        <time>2015-08-02T13:24:06Z</time>
      </trkpt>
      <trkpt lat="43.410896" lon="1.719567">
        <ele>175.3</ele>
        <time>2015-08-02T13:24:10Z</time>
      </trkpt>
      <trkpt lat="43.410994" lon="1.719608">
        <ele>176.0</ele>
        <time>2015-08-02T13:24:15Z</time>
      </trkpt>
      <trkpt lat="43.411091" lon="1.719677">
        <ele>176.8</ele>
        <time>2015-08-02T13:24:20Z</time>
      </trkpt>
      <trkpt lat="43.411175" lon="1.719736">
        <ele>177.2</ele>
        <time>2015-08-02T13:24:24Z</time>
      </trkpt>
      <trkpt lat="43.411266" lon="1.719798">
        <ele>177.9</ele>
        <time>2015-08-02T13:24:28Z</time>
      </trkpt>
      <trkpt lat="43.411352" lon="1.719865">
        <ele>178.4</ele>
        <time>2015-08-02T13:24:32Z</time>
      </trkpt>
      <trkpt lat="43.411436" lon="1.719929">
        <ele>178.5</ele>
        <time>2015-08-02T13:24:36Z</time>
      </trkpt>
      <trkpt lat="43.411514" lon="1.719976">
        <ele>178.2</ele>
        <time>2015-08-02T13:24:58Z</time>
      </trkpt>
      <trkpt lat="43.411599" lon="1.720027">
        <ele>178.8</ele>
        <time>2015-08-02T13:25:24Z</time>
      </trkpt>
      <trkpt lat="43.411665" lon="1.719943">
        <ele>178.4</ele>
        <time>2015-08-02T13:25:29Z</time>
      </trkpt>
      <trkpt lat="43.411727" lon="1.719810">
        <ele>177.9</ele>
        <time>2015-08-02T13:25:34Z</time>
      </trkpt>
      <trkpt lat="43.411781" lon="1.719696">
        <ele>176.9</ele>
        <time>2015-08-02T13:25:39Z</time>
      </trkpt>
      <trkpt lat="43.411785" lon="1.719575">
        <ele>175.9</ele>
        <time>2015-08-02T13:25:45Z</time>
      </trkpt>
      <trkpt lat="43.411789" lon="1.719441">
        <ele>175.6</ele>
        <time>2015-08-02T13:25:49Z</time>
      </trkpt>
      <trkpt lat="43.411811" lon="1.719308">
        <ele>175.4</ele>
        <time>2015-08-02T13:25:52Z</time>
      </trkpt>
      <trkpt lat="43.411835" lon="1.719156">
        <ele>175.1</ele>
        <time>2015-08-02T13:25:55Z</time>
      </trkpt>
      <trkpt lat="43.411853" lon="1.719007">
        <ele>173.6</ele>
        <time>2015-08-02T13:25:58Z</time>
      </trkpt>
      <trkpt lat="43.411855" lon="1.718880">
        <ele>172.2</ele>
        <time>2015-08-02T13:26:02Z</time>
      </trkpt>
      <trkpt lat="43.411837" lon="1.718757">
        <ele>172.6</ele>
        <time>2015-08-02T13:26:08Z</time>
      </trkpt>
      <trkpt lat="43.411756" lon="1.718708">
        <ele>172.0</ele>
        <time>2015-08-02T13:27:53Z</time>
      </trkpt>
      <trkpt lat="43.411683" lon="1.718625">
        <ele>172.2</ele>
        <time>2015-08-02T13:27:57Z</time>
      </trkpt>
      <trkpt lat="43.411628" lon="1.718521">
        <ele>172.2</ele>
        <time>2015-08-02T13:28:01Z</time>
      </trkpt>
      <trkpt lat="43.411594" lon="1.718398">
        <ele>172.8</ele>
        <time>2015-08-02T13:28:06Z</time>
      </trkpt>
      <trkpt lat="43.411603" lon="1.718333">
        <ele>173.0</ele>
        <time>2015-08-02T13:28:30Z</time>
      </trkpt>
      <trkpt lat="43.411617" lon="1.718283">
        <ele>172.1</ele>
        <time>2015-08-02T13:29:03Z</time>
      </trkpt>
      <trkpt lat="43.411674" lon="1.718265">
        <ele>172.4</ele>
        <time>2015-08-02T13:29:26Z</time>
      </trkpt>
      <trkpt lat="43.411742" lon="1.718164">
        <ele>172.8</ele>
        <time>2015-08-02T13:29:36Z</time>
      </trkpt>
      <trkpt lat="43.411808" lon="1.718061">
        <ele>174.7</ele>
        <time>2015-08-02T13:29:46Z</time>
      </trkpt>
      <trkpt lat="43.411832" lon="1.717928">
        <ele>177.6</ele>
        <time>2015-08-02T13:29:57Z</time>
      </trkpt>
      <trkpt lat="43.411830" lon="1.717784">
        <ele>181.1</ele>
        <time>2015-08-02T13:30:07Z</time>
      </trkpt>
      <trkpt lat="43.411847" lon="1.717637">
        <ele>185.6</ele>
        <time>2015-08-02T13:30:18Z</time>
      </trkpt>
      <trkpt lat="43.411850" lon="1.717499">
        <ele>190.7</ele>
        <time>2015-08-02T13:30:29Z</time>
      </trkpt>
      <trkpt lat="43.411853" lon="1.717354">
        <ele>195.0</ele>
        <time>2015-08-02T13:30:40Z</time>
      </trkpt>
      <trkpt lat="43.411845" lon="1.717201">
        <ele>199.4</ele>
        <time>2015-08-02T13:30:53Z</time>
      </trkpt>
      <trkpt lat="43.411850" lon="1.717074">
        <ele>203.2</ele>
        <time>2015-08-02T13:31:04Z</time>
      </trkpt>
      <trkpt lat="43.411854" lon="1.716917">
        <ele>205.5</ele>
        <time>2015-08-02T13:31:17Z</time>
      </trkpt>
      <trkpt lat="43.411805" lon="1.716820">
        <ele>205.9</ele>
        <time>2015-08-02T13:31:26Z</time>
      </trkpt>
      <trkpt lat="43.411715" lon="1.716752">
        <ele>205.9</ele>
        <time>2015-08-02T13:31:35Z</time>
      </trkpt>
      <trkpt lat="43.411618" lon="1.716709">
        <ele>206.4</ele>
        <time>2015-08-02T13:31:44Z</time>
      </trkpt>
      <trkpt lat="43.411565" lon="1.716700">
        <ele>205.3</ele>
        <time>2015-08-02T13:33:40Z</time>
      </trkpt>
      <trkpt lat="43.411580" lon="1.716696">
        <ele>204.2</ele>
        <time>2015-08-02T13:35:15Z</time>
      </trkpt>
      <trkpt lat="43.411520" lon="1.716661">
        <ele>203.9</ele>
        <time>2015-08-02T13:35:43Z</time>
      </trkpt>
      <trkpt lat="43.411447" lon="1.716586">
        <ele>203.0</ele>
        <time>2015-08-02T13:35:51Z</time>
      </trkpt>
      <trkpt lat="43.411427" lon="1.716474">
        <ele>202.6</ele>
        <time>2015-08-02T13:35:58Z</time>
      </trkpt>
      <trkpt lat="43.411331" lon="1.716428">
        <ele>202.1</ele>
        <time>2015-08-02T13:36:07Z</time>
      </trkpt>
      <trkpt lat="43.411232" lon="1.716376">
        <ele>200.4</ele>
        <time>2015-08-02T13:36:16Z</time>
      </trkpt>
      <trkpt lat="43.411191" lon="1.716285">
        <ele>200.5</ele>
        <time>2015-08-02T13:36:48Z</time>
      </trkpt>
      <trkpt lat="43.411284" lon="1.716254">
        <ele>200.1</ele>
        <time>2015-08-02T13:37:01Z</time>
      </trkpt>
      <trkpt lat="43.411379" lon="1.716225">
        <ele>199.9</ele>
        <time>2015-08-02T13:37:06Z</time>
      </trkpt>
      <trkpt lat="43.411485" lon="1.716199">
        <ele>200.2</ele>
        <time>2015-08-02T13:37:10Z</time>
      </trkpt>
      <trkpt lat="43.411585" lon="1.716176">
        <ele>200.7</ele>
        <time>2015-08-02T13:37:14Z</time>
      </trkpt>
      <trkpt lat="43.411687" lon="1.716143">
        <ele>201.0</ele>
        <time>2015-08-02T13:37:18Z</time>
      </trkpt>
      <trkpt lat="43.411781" lon="1.716119">
        <ele>200.4</ele>
        <time>2015-08-02T13:37:22Z</time>
      </trkpt>
      <trkpt lat="43.411885" lon="1.716094">
        <ele>200.6</ele>
        <time>2015-08-02T13:37:27Z</time>
      </trkpt>
      <trkpt lat="43.411985" lon="1.716056">
        <ele>201.0</ele>
        <time>2015-08-02T13:37:32Z</time>
      </trkpt>
      <trkpt lat="43.412086" lon="1.716018">
        <ele>202.9</ele>
        <time>2015-08-02T13:37:37Z</time>
      </trkpt>
      <trkpt lat="43.412177" lon="1.715988">
        <ele>204.2</ele>
        <time>2015-08-02T13:37:41Z</time>
      </trkpt>
      <trkpt lat="43.412284" lon="1.715957">
        <ele>205.0</ele>
        <time>2015-08-02T13:37:45Z</time>
      </trkpt>
      <trkpt lat="43.412385" lon="1.715917">
        <ele>206.2</ele>
        <time>2015-08-02T13:37:49Z</time>
      </trkpt>
      <trkpt lat="43.412490" lon="1.715892">
        <ele>206.9</ele>
        <time>2015-08-02T13:37:53Z</time>
      </trkpt>
      <trkpt lat="43.412600" lon="1.715872">
        <ele>206.5</ele>
        <time>2015-08-02T13:37:57Z</time>
      </trkpt>
      <trkpt lat="43.412705" lon="1.715849">
        <ele>206.1</ele>
        <time>2015-08-02T13:38:01Z</time>
      </trkpt>
      <trkpt lat="43.412812" lon="1.715825">
        <ele>206.3</ele>
        <time>2015-08-02T13:38:05Z</time>
      </trkpt>
      <trkpt lat="43.412916" lon="1.715794">
        <ele>207.0</ele>
        <time>2015-08-02T13:38:09Z</time>
      </trkpt>
      <trkpt lat="43.413011" lon="1.715779">
        <ele>208.8</ele>
        <time>2015-08-02T13:38:13Z</time>
      </trkpt>
      <trkpt lat="43.413119" lon="1.715756">
        <ele>209.2</ele>
        <time>2015-08-02T13:38:18Z</time>
      </trkpt>
      <trkpt lat="43.413225" lon="1.715746">
        <ele>208.8</ele>
        <time>2015-08-02T13:38:22Z</time>
      </trkpt>
      <trkpt lat="43.413334" lon="1.715732">
        <ele>206.6</ele>
        <time>2015-08-02T13:38:26Z</time>
      </trkpt>
      <trkpt lat="43.413445" lon="1.715739">
        <ele>206.3</ele>
        <time>2015-08-02T13:38:29Z</time>
      </trkpt>
      <trkpt lat="43.413561" lon="1.715752">
        <ele>205.4</ele>
        <time>2015-08-02T13:38:32Z</time>
      </trkpt>
      <trkpt lat="43.413672" lon="1.715762">
        <ele>207.3</ele>
        <time>2015-08-02T13:38:35Z</time>
      </trkpt>
      <trkpt lat="43.413793" lon="1.715767">
        <ele>207.1</ele>
        <time>2015-08-02T13:38:38Z</time>
      </trkpt>
      <trkpt lat="43.413910" lon="1.715799">
        <ele>206.8</ele>
        <time>2015-08-02T13:38:41Z</time>
      </trkpt>
      <trkpt lat="43.414017" lon="1.715828">
        <ele>207.5</ele>
        <time>2015-08-02T13:38:45Z</time>
      </trkpt>
      <trkpt lat="43.414108" lon="1.715825">
        <ele>207.1</ele>
        <time>2015-08-02T13:38:50Z</time>
      </trkpt>
      <trkpt lat="43.414165" lon="1.715786">
        <ele>206.4</ele>
        <time>2015-08-02T13:39:26Z</time>
      </trkpt>
      <trkpt lat="43.414193" lon="1.715649">
        <ele>206.3</ele>
        <time>2015-08-02T13:39:30Z</time>
      </trkpt>
      <trkpt lat="43.414247" lon="1.715530">
        <ele>205.5</ele>
        <time>2015-08-02T13:39:33Z</time>
      </trkpt>
      <trkpt lat="43.414290" lon="1.715381">
        <ele>204.4</ele>
        <time>2015-08-02T13:39:37Z</time>
      </trkpt>
      <trkpt lat="43.414343" lon="1.715228">
        <ele>204.3</ele>
        <time>2015-08-02T13:39:41Z</time>
      </trkpt>
      <trkpt lat="43.414396" lon="1.715103">
        <ele>203.9</ele>
        <time>2015-08-02T13:39:44Z</time>
      </trkpt>
      <trkpt lat="43.414448" lon="1.714964">
        <ele>202.0</ele>
        <time>2015-08-02T13:39:47Z</time>
      </trkpt>
      <trkpt lat="43.414502" lon="1.714824">
        <ele>201.6</ele>
        <time>2015-08-02T13:39:50Z</time>
      </trkpt>
      <trkpt lat="43.414556" lon="1.714681">
        <ele>201.6</ele>
        <time>2015-08-02T13:39:53Z</time>
      </trkpt>
      <trkpt lat="43.414628" lon="1.714537">
        <ele>200.7</ele>
        <time>2015-08-02T13:39:56Z</time>
      </trkpt>
      <trkpt lat="43.414706" lon="1.714384">
        <ele>200.4</ele>
        <time>2015-08-02T13:39:59Z</time>
      </trkpt>
      <trkpt lat="43.414757" lon="1.714281">
        <ele>200.2</ele>
        <time>2015-08-02T13:40:01Z</time>
      </trkpt>
      <trkpt lat="43.414826" lon="1.714131">
        <ele>199.6</ele>
        <time>2015-08-02T13:40:04Z</time>
      </trkpt>
      <trkpt lat="43.414948" lon="1.713885">
        <ele>201.6</ele>
        <time>2015-08-02T13:46:40Z</time>
      </trkpt>
      <trkpt lat="43.415016" lon="1.713765">
        <ele>201.1</ele>
        <time>2015-08-02T13:46:44Z</time>
      </trkpt>
      <trkpt lat="43.415097" lon="1.713640">
        <ele>200.3</ele>
        <time>2015-08-02T13:46:48Z</time>
      </trkpt>
      <trkpt lat="43.415181" lon="1.713500">
        <ele>199.2</ele>
        <time>2015-08-02T13:46:51Z</time>
      </trkpt>
      <trkpt lat="43.415238" lon="1.713401">
        <ele>198.5</ele>
        <time>2015-08-02T13:46:53Z</time>
      </trkpt>
      <trkpt lat="43.415287" lon="1.713320">
        <ele>195.0</ele>
        <time>2015-08-02T13:47:01Z</time>
      </trkpt>
      <trkpt lat="43.415357" lon="1.713153">
        <ele>193.7</ele>
        <time>2015-08-02T13:47:06Z</time>
      </trkpt>
      <trkpt lat="43.415404" lon="1.712967">
        <ele>192.5</ele>
        <time>2015-08-02T13:47:09Z</time>
      </trkpt>
      <trkpt lat="43.415438" lon="1.712827">
        <ele>191.5</ele>
        <time>2015-08-02T13:47:11Z</time>
      </trkpt>
      <trkpt lat="43.415483" lon="1.712679">
        <ele>190.6</ele>
        <time>2015-08-02T13:47:13Z</time>
      </trkpt>
      <trkpt lat="43.415538" lon="1.712529">
        <ele>190.1</ele>
        <time>2015-08-02T13:47:15Z</time>
      </trkpt>
      <trkpt lat="43.415611" lon="1.712392">
        <ele>190.0</ele>
        <time>2015-08-02T13:47:17Z</time>
      </trkpt>
      <trkpt lat="43.415714" lon="1.712296">
        <ele>189.5</ele>
        <time>2015-08-02T13:47:19Z</time>
      </trkpt>
      <trkpt lat="43.415835" lon="1.712220">
        <ele>189.1</ele>
        <time>2015-08-02T13:47:21Z</time>
      </trkpt>
      <trkpt lat="43.415951" lon="1.712126">
        <ele>188.4</ele>
        <time>2015-08-02T13:47:23Z</time>
      </trkpt>
      <trkpt lat="43.416040" lon="1.711971">
        <ele>187.4</ele>
        <time>2015-08-02T13:47:25Z</time>
      </trkpt>
      <trkpt lat="43.416081" lon="1.711766">
        <ele>186.4</ele>
        <time>2015-08-02T13:47:27Z</time>
      </trkpt>
      <trkpt lat="43.416096" lon="1.711546">
        <ele>185.4</ele>
        <time>2015-08-02T13:47:29Z</time>
      </trkpt>
      <trkpt lat="43.416120" lon="1.711324">
        <ele>184.8</ele>
        <time>2015-08-02T13:47:31Z</time>
      </trkpt>
      <trkpt lat="43.416143" lon="1.711107">
        <ele>184.1</ele>
        <time>2015-08-02T13:47:33Z</time>
      </trkpt>
      <trkpt lat="43.416160" lon="1.710887">
        <ele>184.0</ele>
        <time>2015-08-02T13:47:35Z</time>
      </trkpt>
      <trkpt lat="43.416179" lon="1.710672">
        <ele>183.8</ele>
        <time>2015-08-02T13:47:37Z</time>
      </trkpt>
      <trkpt lat="43.416199" lon="1.710462">
        <ele>183.5</ele>
        <time>2015-08-02T13:47:39Z</time>
      </trkpt>
      <trkpt lat="43.416224" lon="1.710258">
        <ele>183.3</ele>
        <time>2015-08-02T13:47:41Z</time>
      </trkpt>
      <trkpt lat="43.416256" lon="1.710073">
        <ele>183.1</ele>
        <time>2015-08-02T13:47:43Z</time>
      </trkpt>
      <trkpt lat="43.416323" lon="1.709917">
        <ele>182.7</ele>
        <time>2015-08-02T13:47:45Z</time>
      </trkpt>
      <trkpt lat="43.416407" lon="1.709811">
        <ele>181.7</ele>
        <time>2015-08-02T13:47:47Z</time>
      </trkpt>
      <trkpt lat="43.416496" lon="1.709801">
        <ele>180.9</ele>
        <time>2015-08-02T13:47:50Z</time>
      </trkpt>
      <trkpt lat="43.416517" lon="1.709954">
        <ele>181.1</ele>
        <time>2015-08-02T13:47:54Z</time>
      </trkpt>
      <trkpt lat="43.416617" lon="1.710029">
        <ele>180.1</ele>
        <time>2015-08-02T13:47:58Z</time>
      </trkpt>
      <trkpt lat="43.416702" lon="1.710093">
        <ele>180.3</ele>
        <time>2015-08-02T13:48:01Z</time>
      </trkpt>
      <trkpt lat="43.416792" lon="1.710170">
        <ele>180.7</ele>
        <time>2015-08-02T13:48:04Z</time>
      </trkpt>
      <trkpt lat="43.416891" lon="1.710251">
        <ele>182.6</ele>
        <time>2015-08-02T13:48:07Z</time>
      </trkpt>
      <trkpt lat="43.416995" lon="1.710313">
        <ele>183.0</ele>
        <time>2015-08-02T13:48:10Z</time>
      </trkpt>
      <trkpt lat="43.417095" lon="1.710382">
        <ele>183.5</ele>
        <time>2015-08-02T13:48:13Z</time>
      </trkpt>
      <trkpt lat="43.417192" lon="1.710438">
        <ele>183.6</ele>
        <time>2015-08-02T13:48:16Z</time>
      </trkpt>
      <trkpt lat="43.417294" lon="1.710500">
        <ele>184.1</ele>
        <time>2015-08-02T13:48:19Z</time>
      </trkpt>
      <trkpt lat="43.417389" lon="1.710568">
        <ele>184.2</ele>
        <time>2015-08-02T13:48:22Z</time>
      </trkpt>
      <trkpt lat="43.417497" lon="1.710650">
        <ele>185.1</ele>
        <time>2015-08-02T13:48:26Z</time>
      </trkpt>
      <trkpt lat="43.417608" lon="1.710729">
        <ele>185.6</ele>
        <time>2015-08-02T13:48:30Z</time>
      </trkpt>
      <trkpt lat="43.417688" lon="1.710789">
        <ele>186.5</ele>
        <time>2015-08-02T13:48:33Z</time>
      </trkpt>
      <trkpt lat="43.417769" lon="1.710855">
        <ele>187.8</ele>
        <time>2015-08-02T13:48:36Z</time>
      </trkpt>
      <trkpt lat="43.417855" lon="1.710916">
        <ele>188.4</ele>
        <time>2015-08-02T13:48:39Z</time>
      </trkpt>
      <trkpt lat="43.417941" lon="1.710980">
        <ele>188.0</ele>
        <time>2015-08-02T13:48:42Z</time>
      </trkpt>
      <trkpt lat="43.418031" lon="1.711044">
        <ele>187.8</ele>
        <time>2015-08-02T13:48:45Z</time>
      </trkpt>
      <trkpt lat="43.418114" lon="1.711104">
        <ele>187.4</ele>
        <time>2015-08-02T13:48:48Z</time>
      </trkpt>
      <trkpt lat="43.418198" lon="1.711162">
        <ele>187.7</ele>
        <time>2015-08-02T13:48:51Z</time>
      </trkpt>
      <trkpt lat="43.418280" lon="1.711228">
        <ele>188.2</ele>
        <time>2015-08-02T13:48:54Z</time>
      </trkpt>
      <trkpt lat="43.418384" lon="1.711299">
        <ele>188.6</ele>
        <time>2015-08-02T13:48:58Z</time>
      </trkpt>
      <trkpt lat="43.418482" lon="1.711375">
        <ele>189.0</ele>
        <time>2015-08-02T13:49:02Z</time>
      </trkpt>
      <trkpt lat="43.418578" lon="1.711440">
        <ele>189.0</ele>
        <time>2015-08-02T13:49:06Z</time>
      </trkpt>
      <trkpt lat="43.418694" lon="1.711500">
        <ele>188.8</ele>
        <time>2015-08-02T13:49:10Z</time>
      </trkpt>
      <trkpt lat="43.418803" lon="1.711540">
        <ele>188.6</ele>
        <time>2015-08-02T13:49:14Z</time>
      </trkpt>
      <trkpt lat="43.418922" lon="1.711565">
        <ele>188.1</ele>
        <time>2015-08-02T13:49:18Z</time>
      </trkpt>
      <trkpt lat="43.419030" lon="1.711584">
        <ele>187.9</ele>
        <time>2015-08-02T13:49:22Z</time>
      </trkpt>
      <trkpt lat="43.419127" lon="1.711594">
        <ele>188.1</ele>
        <time>2015-08-02T13:49:25Z</time>
      </trkpt>
      <trkpt lat="43.419222" lon="1.711601">
        <ele>188.0</ele>
        <time>2015-08-02T13:49:28Z</time>
      </trkpt>
      <trkpt lat="43.419334" lon="1.711616">
        <ele>187.9</ele>
        <time>2015-08-02T13:49:32Z</time>
      </trkpt>
      <trkpt lat="43.419441" lon="1.711646">
        <ele>187.4</ele>
        <time>2015-08-02T13:49:36Z</time>
      </trkpt>
      <trkpt lat="43.419539" lon="1.711687">
        <ele>187.5</ele>
        <time>2015-08-02T13:49:39Z</time>
      </trkpt>
      <trkpt lat="43.419635" lon="1.711739">
        <ele>188.6</ele>
        <time>2015-08-02T13:49:42Z</time>
      </trkpt>
      <trkpt lat="43.419724" lon="1.711800">
        <ele>187.7</ele>
        <time>2015-08-02T13:49:45Z</time>
      </trkpt>
      <trkpt lat="43.419809" lon="1.711861">
        <ele>188.9</ele>
        <time>2015-08-02T13:49:48Z</time>
      </trkpt>
      <trkpt lat="43.419900" lon="1.711924">
        <ele>189.8</ele>
        <time>2015-08-02T13:49:51Z</time>
      </trkpt>
      <trkpt lat="43.419989" lon="1.711988">
        <ele>189.6</ele>
        <time>2015-08-02T13:49:54Z</time>
      </trkpt>
      <trkpt lat="43.420093" lon="1.712076">
        <ele>189.6</ele>
        <time>2015-08-02T13:49:58Z</time>
      </trkpt>
      <trkpt lat="43.420201" lon="1.712163">
        <ele>189.6</ele>
        <time>2015-08-02T13:50:02Z</time>
      </trkpt>
      <trkpt lat="43.420299" lon="1.712252">
        <ele>189.5</ele>
        <time>2015-08-02T13:50:06Z</time>
      </trkpt>
      <trkpt lat="43.420392" lon="1.712337">
        <ele>189.8</ele>
        <time>2015-08-02T13:50:10Z</time>
      </trkpt>
      <trkpt lat="43.420490" lon="1.712425">
        <ele>191.4</ele>
        <time>2015-08-02T13:50:14Z</time>
      </trkpt>
      <trkpt lat="43.420582" lon="1.712513">
        <ele>192.6</ele>
        <time>2015-08-02T13:50:18Z</time>
      </trkpt>
      <trkpt lat="43.420681" lon="1.712607">
        <ele>193.0</ele>
        <time>2015-08-02T13:50:22Z</time>
      </trkpt>
      <trkpt lat="43.420766" lon="1.712676">
        <ele>194.4</ele>
        <time>2015-08-02T13:50:27Z</time>
      </trkpt>
      <trkpt lat="43.420831" lon="1.712776">
        <ele>195.6</ele>
        <time>2015-08-02T13:50:32Z</time>
      </trkpt>
      <trkpt lat="43.420900" lon="1.712871">
        <ele>196.1</ele>
        <time>2015-08-02T13:50:37Z</time>
      </trkpt>
      <trkpt lat="43.420968" lon="1.712957">
        <ele>196.4</ele>
        <time>2015-08-02T13:50:41Z</time>
      </trkpt>
      <trkpt lat="43.421046" lon="1.713041">
        <ele>196.8</ele>
        <time>2015-08-02T13:50:45Z</time>
      </trkpt>
      <trkpt lat="43.421122" lon="1.713133">
        <ele>196.9</ele>
        <time>2015-08-02T13:50:49Z</time>
      </trkpt>
      <trkpt lat="43.421187" lon="1.713238">
        <ele>197.4</ele>
        <time>2015-08-02T13:50:53Z</time>
      </trkpt>
      <trkpt lat="43.421258" lon="1.713315">
        <ele>197.6</ele>
        <time>2015-08-02T13:50:57Z</time>
      </trkpt>
      <trkpt lat="43.421340" lon="1.713406">
        <ele>197.9</ele>
        <time>2015-08-02T13:51:01Z</time>
      </trkpt>
      <trkpt lat="43.421426" lon="1.713489">
        <ele>198.1</ele>
        <time>2015-08-02T13:51:05Z</time>
      </trkpt>
      <trkpt lat="43.421507" lon="1.713586">
        <ele>198.8</ele>
        <time>2015-08-02T13:51:09Z</time>
      </trkpt>
      <trkpt lat="43.421577" lon="1.713704">
        <ele>199.7</ele>
        <time>2015-08-02T13:51:13Z</time>
      </trkpt>
      <trkpt lat="43.421624" lon="1.713836">
        <ele>201.2</ele>
        <time>2015-08-02T13:51:17Z</time>
      </trkpt>
      <trkpt lat="43.421662" lon="1.713982">
        <ele>201.1</ele>
        <time>2015-08-02T13:51:21Z</time>
      </trkpt>
      <trkpt lat="43.421683" lon="1.714133">
        <ele>201.7</ele>
        <time>2015-08-02T13:51:25Z</time>
      </trkpt>
      <trkpt lat="43.421711" lon="1.714287">
        <ele>201.7</ele>
        <time>2015-08-02T13:51:29Z</time>
      </trkpt>
      <trkpt lat="43.421740" lon="1.714443">
        <ele>201.1</ele>
        <time>2015-08-02T13:51:33Z</time>
      </trkpt>
      <trkpt lat="43.421728" lon="1.714578">
        <ele>201.6</ele>
        <time>2015-08-02T13:51:37Z</time>
      </trkpt>
      <trkpt lat="43.421671" lon="1.714702">
        <ele>201.9</ele>
        <time>2015-08-02T13:51:41Z</time>
      </trkpt>
      <trkpt lat="43.421597" lon="1.714823">
        <ele>202.8</ele>
        <time>2015-08-02T13:51:46Z</time>
      </trkpt>
      <trkpt lat="43.421544" lon="1.714934">
        <ele>203.8</ele>
        <time>2015-08-02T13:51:51Z</time>
      </trkpt>
      <trkpt lat="43.421477" lon="1.715053">
        <ele>204.2</ele>
        <time>2015-08-02T13:51:56Z</time>
      </trkpt>
      <trkpt lat="43.421410" lon="1.715181">
        <ele>203.9</ele>
        <time>2015-08-02T13:52:01Z</time>
      </trkpt>
      <trkpt lat="43.421345" lon="1.715312">
        <ele>204.2</ele>
        <time>2015-08-02T13:52:06Z</time>
      </trkpt>
      <trkpt lat="43.421280" lon="1.715424">
        <ele>205.2</ele>
        <time>2015-08-02T13:52:11Z</time>
      </trkpt>
      <trkpt lat="43.421223" lon="1.715552">
        <ele>205.4</ele>
        <time>2015-08-02T13:52:16Z</time>
      </trkpt>
      <trkpt lat="43.421185" lon="1.715692">
        <ele>205.5</ele>
        <time>2015-08-02T13:52:21Z</time>
      </trkpt>
      <trkpt lat="43.421216" lon="1.715809">
        <ele>205.7</ele>
        <time>2015-08-02T13:52:25Z</time>
      </trkpt>
      <trkpt lat="43.421285" lon="1.715899">
        <ele>205.1</ele>
        <time>2015-08-02T13:52:29Z</time>
      </trkpt>
      <trkpt lat="43.421368" lon="1.715978">
        <ele>204.7</ele>
        <time>2015-08-02T13:52:33Z</time>
      </trkpt>
      <trkpt lat="43.421450" lon="1.716059">
        <ele>204.8</ele>
        <time>2015-08-02T13:52:37Z</time>
      </trkpt>
      <trkpt lat="43.421534" lon="1.716139">
        <ele>204.7</ele>
        <time>2015-08-02T13:52:41Z</time>
      </trkpt>
      <trkpt lat="43.421619" lon="1.716199">
        <ele>204.6</ele>
        <time>2015-08-02T13:52:45Z</time>
      </trkpt>
      <trkpt lat="43.421697" lon="1.716275">
        <ele>204.6</ele>
        <time>2015-08-02T13:52:49Z</time>
      </trkpt>
      <trkpt lat="43.421785" lon="1.716342">
        <ele>204.2</ele>
        <time>2015-08-02T13:52:53Z</time>
      </trkpt>
      <trkpt lat="43.421871" lon="1.716433">
        <ele>205.1</ele>
        <time>2015-08-02T13:52:58Z</time>
      </trkpt>
      <trkpt lat="43.421963" lon="1.716527">
        <ele>205.1</ele>
        <time>2015-08-02T13:53:04Z</time>
      </trkpt>
      <trkpt lat="43.422043" lon="1.716595">
        <ele>204.8</ele>
        <time>2015-08-02T13:53:12Z</time>
      </trkpt>
      <trkpt lat="43.422082" lon="1.716580">
        <ele>204.6</ele>
        <time>2015-08-02T13:55:10Z</time>
      </trkpt>
      <trkpt lat="43.422154" lon="1.716427">
        <ele>204.2</ele>
        <time>2015-08-02T13:55:14Z</time>
      </trkpt>
      <trkpt lat="43.422209" lon="1.716316">
        <ele>204.1</ele>
        <time>2015-08-02T13:55:16Z</time>
      </trkpt>
      <trkpt lat="43.422263" lon="1.716192">
        <ele>202.9</ele>
        <time>2015-08-02T13:55:18Z</time>
      </trkpt>
      <trkpt lat="43.422324" lon="1.716065">
        <ele>202.1</ele>
        <time>2015-08-02T13:55:20Z</time>
      </trkpt>
      <trkpt lat="43.422381" lon="1.715940">
        <ele>201.9</ele>
        <time>2015-08-02T13:55:22Z</time>
      </trkpt>
      <trkpt lat="43.422431" lon="1.715823">
        <ele>200.8</ele>
        <time>2015-08-02T13:55:24Z</time>
      </trkpt>
      <trkpt lat="43.422520" lon="1.715682">
        <ele>199.1</ele>
        <time>2015-08-02T13:55:27Z</time>
      </trkpt>
      <trkpt lat="43.422634" lon="1.715608">
        <ele>198.2</ele>
        <time>2015-08-02T13:55:30Z</time>
      </trkpt>
      <trkpt lat="43.422743" lon="1.715511">
        <ele>197.4</ele>
        <time>2015-08-02T13:55:33Z</time>
      </trkpt>
      <trkpt lat="43.422818" lon="1.715435">
        <ele>197.3</ele>
        <time>2015-08-02T13:55:35Z</time>
      </trkpt>
      <trkpt lat="43.422895" lon="1.715350">
        <ele>196.8</ele>
        <time>2015-08-02T13:55:37Z</time>
      </trkpt>
      <trkpt lat="43.422969" lon="1.715262">
        <ele>196.7</ele>
        <time>2015-08-02T13:55:39Z</time>
      </trkpt>
      <trkpt lat="43.423043" lon="1.715188">
        <ele>197.0</ele>
        <time>2015-08-02T13:55:41Z</time>
      </trkpt>
      <trkpt lat="43.423144" lon="1.715063">
        <ele>197.5</ele>
        <time>2015-08-02T13:55:44Z</time>
      </trkpt>
      <trkpt lat="43.423221" lon="1.714994">
        <ele>198.6</ele>
        <time>2015-08-02T13:55:46Z</time>
      </trkpt>
      <trkpt lat="43.423353" lon="1.714926">
        <ele>199.3</ele>
        <time>2015-08-02T13:55:49Z</time>
      </trkpt>
      <trkpt lat="43.423435" lon="1.714879">
        <ele>198.0</ele>
        <time>2015-08-02T13:55:54Z</time>
      </trkpt>
      <trkpt lat="43.423518" lon="1.714744">
        <ele>197.4</ele>
        <time>2015-08-02T13:56:10Z</time>
      </trkpt>
      <trkpt lat="43.423592" lon="1.714508">
        <ele>196.8</ele>
        <time>2015-08-02T14:00:42Z</time>
      </trkpt>
      <trkpt lat="43.423631" lon="1.714371">
        <ele>196.6</ele>
        <time>2015-08-02T14:00:46Z</time>
      </trkpt>
      <trkpt lat="43.423658" lon="1.714242">
        <ele>196.7</ele>
        <time>2015-08-02T14:00:50Z</time>
      </trkpt>
      <trkpt lat="43.423701" lon="1.714095">
        <ele>196.7</ele>
        <time>2015-08-02T14:00:54Z</time>
      </trkpt>
      <trkpt lat="43.423730" lon="1.713981">
        <ele>196.3</ele>
        <time>2015-08-02T14:00:57Z</time>
      </trkpt>
      <trkpt lat="43.423755" lon="1.713840">
        <ele>195.2</ele>
        <time>2015-08-02T14:01:01Z</time>
      </trkpt>
      <trkpt lat="43.423786" lon="1.713706">
        <ele>195.4</ele>
        <time>2015-08-02T14:01:05Z</time>
      </trkpt>
      <trkpt lat="43.423813" lon="1.713584">
        <ele>195.0</ele>
        <time>2015-08-02T14:01:08Z</time>
      </trkpt>
      <trkpt lat="43.423846" lon="1.713457">
        <ele>194.9</ele>
        <time>2015-08-02T14:01:11Z</time>
      </trkpt>
      <trkpt lat="43.423881" lon="1.713323">
        <ele>194.5</ele>
        <time>2015-08-02T14:01:14Z</time>
      </trkpt>
      <trkpt lat="43.423912" lon="1.713201">
        <ele>194.1</ele>
        <time>2015-08-02T14:01:17Z</time>
      </trkpt>
      <trkpt lat="43.423942" lon="1.713081">
        <ele>193.6</ele>
        <time>2015-08-02T14:01:20Z</time>
      </trkpt>
      <trkpt lat="43.423970" lon="1.712953">
        <ele>193.1</ele>
        <time>2015-08-02T14:01:23Z</time>
      </trkpt>
      <trkpt lat="43.423998" lon="1.712827">
        <ele>192.9</ele>
        <time>2015-08-02T14:01:26Z</time>
      </trkpt>
      <trkpt lat="43.424028" lon="1.712697">
        <ele>192.5</ele>
        <time>2015-08-02T14:01:29Z</time>
      </trkpt>
      <trkpt lat="43.424062" lon="1.712562">
        <ele>191.8</ele>
        <time>2015-08-02T14:01:32Z</time>
      </trkpt>
      <trkpt lat="43.424094" lon="1.712417">
        <ele>190.9</ele>
        <time>2015-08-02T14:01:35Z</time>
      </trkpt>
      <trkpt lat="43.424131" lon="1.712254">
        <ele>190.0</ele>
        <time>2015-08-02T14:01:38Z</time>
      </trkpt>
      <trkpt lat="43.424173" lon="1.712071">
        <ele>188.8</ele>
        <time>2015-08-02T14:01:41Z</time>
      </trkpt>
      <trkpt lat="43.424201" lon="1.711946">
        <ele>188.2</ele>
        <time>2015-08-02T14:01:43Z</time>
      </trkpt>
      <trkpt lat="43.424229" lon="1.711817">
        <ele>187.5</ele>
        <time>2015-08-02T14:01:45Z</time>
      </trkpt>
      <trkpt lat="43.424255" lon="1.711681">
        <ele>186.9</ele>
        <time>2015-08-02T14:01:47Z</time>
      </trkpt>
      <trkpt lat="43.424274" lon="1.711549">
        <ele>186.4</ele>
        <time>2015-08-02T14:01:49Z</time>
      </trkpt>
      <trkpt lat="43.424306" lon="1.711412">
        <ele>185.9</ele>
        <time>2015-08-02T14:01:51Z</time>
      </trkpt>
      <trkpt lat="43.424342" lon="1.711274">
        <ele>185.6</ele>
        <time>2015-08-02T14:01:53Z</time>
      </trkpt>
      <trkpt lat="43.424378" lon="1.711138">
        <ele>185.2</ele>
        <time>2015-08-02T14:01:55Z</time>
      </trkpt>
      <trkpt lat="43.424418" lon="1.711000">
        <ele>184.6</ele>
        <time>2015-08-02T14:01:57Z</time>
      </trkpt>
      <trkpt lat="43.424454" lon="1.710865">
        <ele>184.5</ele>
        <time>2015-08-02T14:01:59Z</time>
      </trkpt>
      <trkpt lat="43.424492" lon="1.710733">
        <ele>184.2</ele>
        <time>2015-08-02T14:02:01Z</time>
      </trkpt>
      <trkpt lat="43.424532" lon="1.710611">
        <ele>184.1</ele>
        <time>2015-08-02T14:02:03Z</time>
      </trkpt>
      <trkpt lat="43.424575" lon="1.710500">
        <ele>184.0</ele>
        <time>2015-08-02T14:02:05Z</time>
      </trkpt>
      <trkpt lat="43.424617" lon="1.710337">
        <ele>184.0</ele>
        <time>2015-08-02T14:02:08Z</time>
      </trkpt>
      <trkpt lat="43.424667" lon="1.710195">
        <ele>184.2</ele>
        <time>2015-08-02T14:02:11Z</time>
      </trkpt>
      <trkpt lat="43.424722" lon="1.710039">
        <ele>184.9</ele>
        <time>2015-08-02T14:02:14Z</time>
      </trkpt>
      <trkpt lat="43.424774" lon="1.709876">
        <ele>185.1</ele>
        <time>2015-08-02T14:02:17Z</time>
      </trkpt>
      <trkpt lat="43.424825" lon="1.709738">
        <ele>185.0</ele>
        <time>2015-08-02T14:02:20Z</time>
      </trkpt>
      <trkpt lat="43.424875" lon="1.709605">
        <ele>184.7</ele>
        <time>2015-08-02T14:02:23Z</time>
      </trkpt>
      <trkpt lat="43.424927" lon="1.709458">
        <ele>185.0</ele>
        <time>2015-08-02T14:02:26Z</time>
      </trkpt>
      <trkpt lat="43.424973" lon="1.709331">
        <ele>184.5</ele>
        <time>2015-08-02T14:02:29Z</time>
      </trkpt>
      <trkpt lat="43.425004" lon="1.709223">
        <ele>184.5</ele>
        <time>2015-08-02T14:02:32Z</time>
      </trkpt>
      <trkpt lat="43.425050" lon="1.709097">
        <ele>184.0</ele>
        <time>2015-08-02T14:02:35Z</time>
      </trkpt>
      <trkpt lat="43.425103" lon="1.708968">
        <ele>183.5</ele>
        <time>2015-08-02T14:02:38Z</time>
      </trkpt>
      <trkpt lat="43.425157" lon="1.708839">
        <ele>183.6</ele>
        <time>2015-08-02T14:02:42Z</time>
      </trkpt>
      <trkpt lat="43.425204" lon="1.708710">
        <ele>183.1</ele>
        <time>2015-08-02T14:02:45Z</time>
      </trkpt>
      <trkpt lat="43.425251" lon="1.708582">
        <ele>182.4</ele>
        <time>2015-08-02T14:02:48Z</time>
      </trkpt>
      <trkpt lat="43.425289" lon="1.708455">
        <ele>182.4</ele>
        <time>2015-08-02T14:02:51Z</time>
      </trkpt>
      <trkpt lat="43.425323" lon="1.708324">
        <ele>183.0</ele>
        <time>2015-08-02T14:02:55Z</time>
      </trkpt>
      <trkpt lat="43.425337" lon="1.708225">
        <ele>183.9</ele>
        <time>2015-08-02T14:03:04Z</time>
      </trkpt>
      <trkpt lat="43.425414" lon="1.708119">
        <ele>183.1</ele>
        <time>2015-08-02T14:03:28Z</time>
      </trkpt>
      <trkpt lat="43.425473" lon="1.707996">
        <ele>182.5</ele>
        <time>2015-08-02T14:03:31Z</time>
      </trkpt>
      <trkpt lat="43.425536" lon="1.707857">
        <ele>181.9</ele>
        <time>2015-08-02T14:03:34Z</time>
      </trkpt>
      <trkpt lat="43.425603" lon="1.707693">
        <ele>181.3</ele>
        <time>2015-08-02T14:03:37Z</time>
      </trkpt>
      <trkpt lat="43.425657" lon="1.707572">
        <ele>180.7</ele>
        <time>2015-08-02T14:03:39Z</time>
      </trkpt>
      <trkpt lat="43.425717" lon="1.707442">
        <ele>180.1</ele>
        <time>2015-08-02T14:03:41Z</time>
      </trkpt>
      <trkpt lat="43.425780" lon="1.707307">
        <ele>179.6</ele>
        <time>2015-08-02T14:03:43Z</time>
      </trkpt>
      <trkpt lat="43.425841" lon="1.707173">
        <ele>179.2</ele>
        <time>2015-08-02T14:03:45Z</time>
      </trkpt>
      <trkpt lat="43.425907" lon="1.707038">
        <ele>178.6</ele>
        <time>2015-08-02T14:03:47Z</time>
      </trkpt>
      <trkpt lat="43.425970" lon="1.706902">
        <ele>178.5</ele>
        <time>2015-08-02T14:03:49Z</time>
      </trkpt>
      <trkpt lat="43.426034" lon="1.706765">
        <ele>178.0</ele>
        <time>2015-08-02T14:03:51Z</time>
      </trkpt>
      <trkpt lat="43.426097" lon="1.706624">
        <ele>177.7</ele>
        <time>2015-08-02T14:03:53Z</time>
      </trkpt>
      <trkpt lat="43.426159" lon="1.706481">
        <ele>177.4</ele>
        <time>2015-08-02T14:03:55Z</time>
      </trkpt>
      <trkpt lat="43.426224" lon="1.706337">
        <ele>176.9</ele>
        <time>2015-08-02T14:03:57Z</time>
      </trkpt>
      <trkpt lat="43.426288" lon="1.706190">
        <ele>176.6</ele>
        <time>2015-08-02T14:03:59Z</time>
      </trkpt>
      <trkpt lat="43.426354" lon="1.706044">
        <ele>176.3</ele>
        <time>2015-08-02T14:04:01Z</time>
      </trkpt>
      <trkpt lat="43.426421" lon="1.705901">
        <ele>175.9</ele>
        <time>2015-08-02T14:04:03Z</time>
      </trkpt>
      <trkpt lat="43.426485" lon="1.705757">
        <ele>175.6</ele>
        <time>2015-08-02T14:04:05Z</time>
      </trkpt>
      <trkpt lat="43.426551" lon="1.705616">
        <ele>175.3</ele>
        <time>2015-08-02T14:04:07Z</time>
      </trkpt>
      <trkpt lat="43.426618" lon="1.705480">
        <ele>175.0</ele>
        <time>2015-08-02T14:04:09Z</time>
      </trkpt>
      <trkpt lat="43.426683" lon="1.705344">
        <ele>174.8</ele>
        <time>2015-08-02T14:04:11Z</time>
      </trkpt>
      <trkpt lat="43.426749" lon="1.705207">
        <ele>174.4</ele>
        <time>2015-08-02T14:04:13Z</time>
      </trkpt>
      <trkpt lat="43.426816" lon="1.705069">
        <ele>173.8</ele>
        <time>2015-08-02T14:04:15Z</time>
      </trkpt>
      <trkpt lat="43.426885" lon="1.704924">
        <ele>173.1</ele>
        <time>2015-08-02T14:04:17Z</time>
      </trkpt>
      <trkpt lat="43.426956" lon="1.704778">
        <ele>172.6</ele>
        <time>2015-08-02T14:04:19Z</time>
      </trkpt>
      <trkpt lat="43.427027" lon="1.704629">
        <ele>172.1</ele>
        <time>2015-08-02T14:04:21Z</time>
      </trkpt>
      <trkpt lat="43.427096" lon="1.704479">
        <ele>171.6</ele>
        <time>2015-08-02T14:04:23Z</time>
      </trkpt>
      <trkpt lat="43.427162" lon="1.704335">
        <ele>170.8</ele>
        <time>2015-08-02T14:04:25Z</time>
      </trkpt>
      <trkpt lat="43.427214" lon="1.704214">
        <ele>170.3</ele>
        <time>2015-08-02T14:04:27Z</time>
      </trkpt>
      <trkpt lat="43.427287" lon="1.704058">
        <ele>169.3</ele>
        <time>2015-08-02T14:04:30Z</time>
      </trkpt>
      <trkpt lat="43.427342" lon="1.703952">
        <ele>169.3</ele>
        <time>2015-08-02T14:04:32Z</time>
      </trkpt>
      <trkpt lat="43.427395" lon="1.703838">
        <ele>170.4</ele>
        <time>2015-08-02T14:04:35Z</time>
      </trkpt>
      <trkpt lat="43.427472" lon="1.703786">
        <ele>171.8</ele>
        <time>2015-08-02T14:05:05Z</time>
      </trkpt>
      <trkpt lat="43.427412" lon="1.703711">
        <ele>172.2</ele>
        <time>2015-08-02T14:05:19Z</time>
      </trkpt>
      <trkpt lat="43.427421" lon="1.703791">
        <ele>172.5</ele>
        <time>2015-08-02T14:05:25Z</time>
      </trkpt>
      <trkpt lat="43.427470" lon="1.703722">
        <ele>171.6</ele>
        <time>2015-08-02T14:05:37Z</time>
      </trkpt>
      <trkpt lat="43.427487" lon="1.703776">
        <ele>172.5</ele>
        <time>2015-08-02T14:05:47Z</time>
      </trkpt>
      <trkpt lat="43.427415" lon="1.703778">
        <ele>172.3</ele>
        <time>2015-08-02T14:05:52Z</time>
      </trkpt>
      <trkpt lat="43.427449" lon="1.703682">
        <ele>173.3</ele>
        <time>2015-08-02T14:05:56Z</time>
      </trkpt>
      <trkpt lat="43.427550" lon="1.703708">
        <ele>175.5</ele>
        <time>2015-08-02T14:06:01Z</time>
      </trkpt>
      <trkpt lat="43.427632" lon="1.703649">
        <ele>178.6</ele>
        <time>2015-08-02T14:06:05Z</time>
      </trkpt>
      <trkpt lat="43.427711" lon="1.703570">
        <ele>180.4</ele>
        <time>2015-08-02T14:06:09Z</time>
      </trkpt>
      <trkpt lat="43.427795" lon="1.703496">
        <ele>183.5</ele>
        <time>2015-08-02T14:06:14Z</time>
      </trkpt>
      <trkpt lat="43.427876" lon="1.703412">
        <ele>184.9</ele>
        <time>2015-08-02T14:06:19Z</time>
      </trkpt>
      <trkpt lat="43.427946" lon="1.703328">
        <ele>188.3</ele>
        <time>2015-08-02T14:06:25Z</time>
      </trkpt>
      <trkpt lat="43.427998" lon="1.703258">
        <ele>190.4</ele>
        <time>2015-08-02T14:06:34Z</time>
      </trkpt>
      <trkpt lat="43.428064" lon="1.703132">
        <ele>192.1</ele>
        <time>2015-08-02T14:06:46Z</time>
      </trkpt>
      <trkpt lat="43.428132" lon="1.703015">
        <ele>192.4</ele>
        <time>2015-08-02T14:06:56Z</time>
      </trkpt>
      <trkpt lat="43.428207" lon="1.702905">
        <ele>193.1</ele>
        <time>2015-08-02T14:07:06Z</time>
      </trkpt>
      <trkpt lat="43.428273" lon="1.702797">
        <ele>193.9</ele>
        <time>2015-08-02T14:07:16Z</time>
      </trkpt>
      <trkpt lat="43.428333" lon="1.702687">
        <ele>194.3</ele>
        <time>2015-08-02T14:07:25Z</time>
      </trkpt>
      <trkpt lat="43.428411" lon="1.702600">
        <ele>194.0</ele>
        <time>2015-08-02T14:07:34Z</time>
      </trkpt>
      <trkpt lat="43.428499" lon="1.702512">
        <ele>195.2</ele>
        <time>2015-08-02T14:07:45Z</time>
      </trkpt>
      <trkpt lat="43.428602" lon="1.702471">
        <ele>195.9</ele>
        <time>2015-08-02T14:07:54Z</time>
      </trkpt>
      <trkpt lat="43.428710" lon="1.702446">
        <ele>197.0</ele>
        <time>2015-08-02T14:08:03Z</time>
      </trkpt>
      <trkpt lat="43.428820" lon="1.702421">
        <ele>198.3</ele>
        <time>2015-08-02T14:08:12Z</time>
      </trkpt>
      <trkpt lat="43.428905" lon="1.702409">
        <ele>200.9</ele>
        <time>2015-08-02T14:08:20Z</time>
      </trkpt>
      <trkpt lat="43.429019" lon="1.702370">
        <ele>203.8</ele>
        <time>2015-08-02T14:08:30Z</time>
      </trkpt>
      <trkpt lat="43.429115" lon="1.702343">
        <ele>206.3</ele>
        <time>2015-08-02T14:08:40Z</time>
      </trkpt>
      <trkpt lat="43.429208" lon="1.702322">
        <ele>208.0</ele>
        <time>2015-08-02T14:08:50Z</time>
      </trkpt>
      <trkpt lat="43.429298" lon="1.702294">
        <ele>208.5</ele>
        <time>2015-08-02T14:09:00Z</time>
      </trkpt>
      <trkpt lat="43.429381" lon="1.702250">
        <ele>209.1</ele>
        <time>2015-08-02T14:09:10Z</time>
      </trkpt>
      <trkpt lat="43.429453" lon="1.702211">
        <ele>209.8</ele>
        <time>2015-08-02T14:09:20Z</time>
      </trkpt>
      <trkpt lat="43.429548" lon="1.702190">
        <ele>212.6</ele>
        <time>2015-08-02T14:09:30Z</time>
      </trkpt>
      <trkpt lat="43.429647" lon="1.702166">
        <ele>215.0</ele>
        <time>2015-08-02T14:09:40Z</time>
      </trkpt>
      <trkpt lat="43.429729" lon="1.702125">
        <ele>217.3</ele>
        <time>2015-08-02T14:09:50Z</time>
      </trkpt>
      <trkpt lat="43.429801" lon="1.702043">
        <ele>219.1</ele>
        <time>2015-08-02T14:10:00Z</time>
      </trkpt>
      <trkpt lat="43.429877" lon="1.701955">
        <ele>219.8</ele>
        <time>2015-08-02T14:10:08Z</time>
      </trkpt>
      <trkpt lat="43.429934" lon="1.701847">
        <ele>221.9</ele>
        <time>2015-08-02T14:10:18Z</time>
      </trkpt>
      <trkpt lat="43.429995" lon="1.701748">
        <ele>223.8</ele>
        <time>2015-08-02T14:10:28Z</time>
      </trkpt>
      <trkpt lat="43.430047" lon="1.701624">
        <ele>225.2</ele>
        <time>2015-08-02T14:10:40Z</time>
      </trkpt>
      <trkpt lat="43.430118" lon="1.701531">
        <ele>226.1</ele>
        <time>2015-08-02T14:10:50Z</time>
      </trkpt>
      <trkpt lat="43.430203" lon="1.701453">
        <ele>226.4</ele>
        <time>2015-08-02T14:11:01Z</time>
      </trkpt>
      <trkpt lat="43.430267" lon="1.701330">
        <ele>226.9</ele>
        <time>2015-08-02T14:11:06Z</time>
      </trkpt>
      <trkpt lat="43.430328" lon="1.701233">
        <ele>226.5</ele>
        <time>2015-08-02T14:11:10Z</time>
      </trkpt>
      <trkpt lat="43.430399" lon="1.701117">
        <ele>226.7</ele>
        <time>2015-08-02T14:11:15Z</time>
      </trkpt>
      <trkpt lat="43.430463" lon="1.701011">
        <ele>227.4</ele>
        <time>2015-08-02T14:11:20Z</time>
      </trkpt>
      <trkpt lat="43.430523" lon="1.700912">
        <ele>227.7</ele>
        <time>2015-08-02T14:11:25Z</time>
      </trkpt>
      <trkpt lat="43.430589" lon="1.700804">
        <ele>229.0</ele>
        <time>2015-08-02T14:11:30Z</time>
      </trkpt>
      <trkpt lat="43.430626" lon="1.700692">
        <ele>231.0</ele>
        <time>2015-08-02T14:11:35Z</time>
      </trkpt>
      <trkpt lat="43.430648" lon="1.700559">
        <ele>231.1</ele>
        <time>2015-08-02T14:11:40Z</time>
      </trkpt>
      <trkpt lat="43.430666" lon="1.700422">
        <ele>230.8</ele>
        <time>2015-08-02T14:11:45Z</time>
      </trkpt>
      <trkpt lat="43.430692" lon="1.700299">
        <ele>230.4</ele>
        <time>2015-08-02T14:11:51Z</time>
      </trkpt>
      <trkpt lat="43.430732" lon="1.700163">
        <ele>231.3</ele>
        <time>2015-08-02T14:11:56Z</time>
      </trkpt>
      <trkpt lat="43.430785" lon="1.700064">
        <ele>232.5</ele>
        <time>2015-08-02T14:12:01Z</time>
      </trkpt>
      <trkpt lat="43.430848" lon="1.699977">
        <ele>233.9</ele>
        <time>2015-08-02T14:12:06Z</time>
      </trkpt>
      <trkpt lat="43.430899" lon="1.699883">
        <ele>235.3</ele>
        <time>2015-08-02T14:12:10Z</time>
      </trkpt>
      <trkpt lat="43.430940" lon="1.699744">
        <ele>237.0</ele>
        <time>2015-08-02T14:12:16Z</time>
      </trkpt>
      <trkpt lat="43.430987" lon="1.699618">
        <ele>239.7</ele>
        <time>2015-08-02T14:12:22Z</time>
      </trkpt>
      <trkpt lat="43.431028" lon="1.699492">
        <ele>242.7</ele>
        <time>2015-08-02T14:12:27Z</time>
      </trkpt>
      <trkpt lat="43.431107" lon="1.699395">
        <ele>244.2</ele>
        <time>2015-08-02T14:12:32Z</time>
      </trkpt>
      <trkpt lat="43.431191" lon="1.699298">
        <ele>245.4</ele>
        <time>2015-08-02T14:12:37Z</time>
      </trkpt>
      <trkpt lat="43.431250" lon="1.699200">
        <ele>245.5</ele>
        <time>2015-08-02T14:12:42Z</time>
      </trkpt>
      <trkpt lat="43.431254" lon="1.699071">
        <ele>244.5</ele>
        <time>2015-08-02T14:12:49Z</time>
      </trkpt>
      <trkpt lat="43.431204" lon="1.698988">
        <ele>245.5</ele>
        <time>2015-08-02T14:12:56Z</time>
      </trkpt>
      <trkpt lat="43.431125" lon="1.698930">
        <ele>246.3</ele>
        <time>2015-08-02T14:13:02Z</time>
      </trkpt>
      <trkpt lat="43.431029" lon="1.698876">
        <ele>247.0</ele>
        <time>2015-08-02T14:13:08Z</time>
      </trkpt>
      <trkpt lat="43.430946" lon="1.698808">
        <ele>246.9</ele>
        <time>2015-08-02T14:13:13Z</time>
      </trkpt>
      <trkpt lat="43.430841" lon="1.698743">
        <ele>238.3</ele>
        <time>2015-08-02T14:17:25Z</time>
      </trkpt>
      <trkpt lat="43.430917" lon="1.698634">
        <ele>238.9</ele>
        <time>2015-08-02T14:17:33Z</time>
      </trkpt>
      <trkpt lat="43.430951" lon="1.698502">
        <ele>238.8</ele>
        <time>2015-08-02T14:17:45Z</time>
      </trkpt>
      <trkpt lat="43.430990" lon="1.698375">
        <ele>239.6</ele>
        <time>2015-08-02T14:17:55Z</time>
      </trkpt>
      <trkpt lat="43.430975" lon="1.698353">
        <ele>238.9</ele>
        <time>2015-08-02T14:18:17Z</time>
      </trkpt>
      <trkpt lat="43.430895" lon="1.698470">
        <ele>238.3</ele>
        <time>2015-08-02T14:18:21Z</time>
      </trkpt>
      <trkpt lat="43.430806" lon="1.698563">
        <ele>237.5</ele>
        <time>2015-08-02T14:18:25Z</time>
      </trkpt>
      <trkpt lat="43.430718" lon="1.698643">
        <ele>235.3</ele>
        <time>2015-08-02T14:18:29Z</time>
      </trkpt>
      <trkpt lat="43.430627" lon="1.698651">
        <ele>232.2</ele>
        <time>2015-08-02T14:18:34Z</time>
      </trkpt>
      <trkpt lat="43.430545" lon="1.698672">
        <ele>232.1</ele>
        <time>2015-08-02T14:18:59Z</time>
      </trkpt>
      <trkpt lat="43.430364" lon="1.698714">
        <ele>231.6</ele>
        <time>2015-08-02T14:19:02Z</time>
      </trkpt>
      <trkpt lat="43.430207" lon="1.698748">
        <ele>230.8</ele>
        <time>2015-08-02T14:19:04Z</time>
      </trkpt>
      <trkpt lat="43.430040" lon="1.698775">
        <ele>229.9</ele>
        <time>2015-08-02T14:19:06Z</time>
      </trkpt>
      <trkpt lat="43.429875" lon="1.698798">
        <ele>229.0</ele>
        <time>2015-08-02T14:19:08Z</time>
      </trkpt>
      <trkpt lat="43.429717" lon="1.698818">
        <ele>228.0</ele>
        <time>2015-08-02T14:19:10Z</time>
      </trkpt>
      <trkpt lat="43.429563" lon="1.698834">
        <ele>226.9</ele>
        <time>2015-08-02T14:19:12Z</time>
      </trkpt>
      <trkpt lat="43.429409" lon="1.698836">
        <ele>225.7</ele>
        <time>2015-08-02T14:19:14Z</time>
      </trkpt>
      <trkpt lat="43.429256" lon="1.698819">
        <ele>224.3</ele>
        <time>2015-08-02T14:19:16Z</time>
      </trkpt>
      <trkpt lat="43.429106" lon="1.698783">
        <ele>222.5</ele>
        <time>2015-08-02T14:19:18Z</time>
      </trkpt>
      <trkpt lat="43.428950" lon="1.698731">
        <ele>221.1</ele>
        <time>2015-08-02T14:19:20Z</time>
      </trkpt>
      <trkpt lat="43.428777" lon="1.698678">
        <ele>219.4</ele>
        <time>2015-08-02T14:19:22Z</time>
      </trkpt>
      <trkpt lat="43.428591" lon="1.698608">
        <ele>217.2</ele>
        <time>2015-08-02T14:19:24Z</time>
      </trkpt>
      <trkpt lat="43.428493" lon="1.698572">
        <ele>216.4</ele>
        <time>2015-08-02T14:19:25Z</time>
      </trkpt>
      <trkpt lat="43.428392" lon="1.698534">
        <ele>215.4</ele>
        <time>2015-08-02T14:19:26Z</time>
      </trkpt>
      <trkpt lat="43.428291" lon="1.698496">
        <ele>214.4</ele>
        <time>2015-08-02T14:19:27Z</time>
      </trkpt>
      <trkpt lat="43.428196" lon="1.698456">
        <ele>213.4</ele>
        <time>2015-08-02T14:19:28Z</time>
      </trkpt>
      <trkpt lat="43.428014" lon="1.698383">
        <ele>211.1</ele>
        <time>2015-08-02T14:19:30Z</time>
      </trkpt>
      <trkpt lat="43.427922" lon="1.698347">
        <ele>209.6</ele>
        <time>2015-08-02T14:19:31Z</time>
      </trkpt>
      <trkpt lat="43.427829" lon="1.698301">
        <ele>207.7</ele>
        <time>2015-08-02T14:19:32Z</time>
      </trkpt>
      <trkpt lat="43.427647" lon="1.698234">
        <ele>206.0</ele>
        <time>2015-08-02T14:19:34Z</time>
      </trkpt>
      <trkpt lat="43.427483" lon="1.698171">
        <ele>205.4</ele>
        <time>2015-08-02T14:19:36Z</time>
      </trkpt>
      <trkpt lat="43.427344" lon="1.698122">
        <ele>204.5</ele>
        <time>2015-08-02T14:19:38Z</time>
      </trkpt>
      <trkpt lat="43.427232" lon="1.698089">
        <ele>203.7</ele>
        <time>2015-08-02T14:19:40Z</time>
      </trkpt>
      <trkpt lat="43.427136" lon="1.698068">
        <ele>206.0</ele>
        <time>2015-08-02T14:19:44Z</time>
      </trkpt>
      <trkpt lat="43.427087" lon="1.698128">
        <ele>195.2</ele>
        <time>2015-08-02T14:21:03Z</time>
      </trkpt>
      <trkpt lat="43.427000" lon="1.698177">
        <ele>194.8</ele>
        <time>2015-08-02T14:21:07Z</time>
      </trkpt>
      <trkpt lat="43.426916" lon="1.698231">
        <ele>193.9</ele>
        <time>2015-08-02T14:21:10Z</time>
      </trkpt>
      <trkpt lat="43.426814" lon="1.698278">
        <ele>192.2</ele>
        <time>2015-08-02T14:21:13Z</time>
      </trkpt>
      <trkpt lat="43.426710" lon="1.698371">
        <ele>191.4</ele>
        <time>2015-08-02T14:21:16Z</time>
      </trkpt>
      <trkpt lat="43.426597" lon="1.698470">
        <ele>190.6</ele>
        <time>2015-08-02T14:21:19Z</time>
      </trkpt>
      <trkpt lat="43.426489" lon="1.698598">
        <ele>189.9</ele>
        <time>2015-08-02T14:21:22Z</time>
      </trkpt>
      <trkpt lat="43.426378" lon="1.698724">
        <ele>188.9</ele>
        <time>2015-08-02T14:21:25Z</time>
      </trkpt>
      <trkpt lat="43.426306" lon="1.698816">
        <ele>188.1</ele>
        <time>2015-08-02T14:21:27Z</time>
      </trkpt>
      <trkpt lat="43.426230" lon="1.698908">
        <ele>187.5</ele>
        <time>2015-08-02T14:21:29Z</time>
      </trkpt>
      <trkpt lat="43.426156" lon="1.699000">
        <ele>187.2</ele>
        <time>2015-08-02T14:21:31Z</time>
      </trkpt>
      <trkpt lat="43.426083" lon="1.699093">
        <ele>186.7</ele>
        <time>2015-08-02T14:21:33Z</time>
      </trkpt>
      <trkpt lat="43.426008" lon="1.699183">
        <ele>186.3</ele>
        <time>2015-08-02T14:21:35Z</time>
      </trkpt>
      <trkpt lat="43.425913" lon="1.699319">
        <ele>186.5</ele>
        <time>2015-08-02T14:21:38Z</time>
      </trkpt>
      <trkpt lat="43.425810" lon="1.699446">
        <ele>186.8</ele>
        <time>2015-08-02T14:21:41Z</time>
      </trkpt>
      <trkpt lat="43.425696" lon="1.699564">
        <ele>187.4</ele>
        <time>2015-08-02T14:21:44Z</time>
      </trkpt>
      <trkpt lat="43.425614" lon="1.699630">
        <ele>188.8</ele>
        <time>2015-08-02T14:21:46Z</time>
      </trkpt>
      <trkpt lat="43.425491" lon="1.699679">
        <ele>190.1</ele>
        <time>2015-08-02T14:21:49Z</time>
      </trkpt>
      <trkpt lat="43.425360" lon="1.699713">
        <ele>189.4</ele>
        <time>2015-08-02T14:21:52Z</time>
      </trkpt>
      <trkpt lat="43.425266" lon="1.699741">
        <ele>188.9</ele>
        <time>2015-08-02T14:21:54Z</time>
      </trkpt>
      <trkpt lat="43.425171" lon="1.699784">
        <ele>188.4</ele>
        <time>2015-08-02T14:21:56Z</time>
      </trkpt>
      <trkpt lat="43.425087" lon="1.699836">
        <ele>188.0</ele>
        <time>2015-08-02T14:21:58Z</time>
      </trkpt>
      <trkpt lat="43.425008" lon="1.699908">
        <ele>186.6</ele>
        <time>2015-08-02T14:22:00Z</time>
      </trkpt>
      <trkpt lat="43.424922" lon="1.699986">
        <ele>185.6</ele>
        <time>2015-08-02T14:22:02Z</time>
      </trkpt>
      <trkpt lat="43.424829" lon="1.700059">
        <ele>185.2</ele>
        <time>2015-08-02T14:22:04Z</time>
      </trkpt>
      <trkpt lat="43.424728" lon="1.700118">
        <ele>184.7</ele>
        <time>2015-08-02T14:22:06Z</time>
      </trkpt>
      <trkpt lat="43.424619" lon="1.700187">
        <ele>183.9</ele>
        <time>2015-08-02T14:22:08Z</time>
      </trkpt>
      <trkpt lat="43.424502" lon="1.700268">
        <ele>183.1</ele>
        <time>2015-08-02T14:22:10Z</time>
      </trkpt>
      <trkpt lat="43.424380" lon="1.700356">
        <ele>182.1</ele>
        <time>2015-08-02T14:22:12Z</time>
      </trkpt>
      <trkpt lat="43.424261" lon="1.700459">
        <ele>181.4</ele>
        <time>2015-08-02T14:22:14Z</time>
      </trkpt>
      <trkpt lat="43.424149" lon="1.700568">
        <ele>180.7</ele>
        <time>2015-08-02T14:22:16Z</time>
      </trkpt>
      <trkpt lat="43.424043" lon="1.700671">
        <ele>179.7</ele>
        <time>2015-08-02T14:22:18Z</time>
      </trkpt>
      <trkpt lat="43.423937" lon="1.700763">
        <ele>178.7</ele>
        <time>2015-08-02T14:22:20Z</time>
      </trkpt>
      <trkpt lat="43.423817" lon="1.700837">
        <ele>177.8</ele>
        <time>2015-08-02T14:22:22Z</time>
      </trkpt>
      <trkpt lat="43.423694" lon="1.700875">
        <ele>176.6</ele>
        <time>2015-08-02T14:22:24Z</time>
      </trkpt>
      <trkpt lat="43.423555" lon="1.700879">
        <ele>175.2</ele>
        <time>2015-08-02T14:22:26Z</time>
      </trkpt>
      <trkpt lat="43.423416" lon="1.700850">
        <ele>174.6</ele>
        <time>2015-08-02T14:22:28Z</time>
      </trkpt>
      <trkpt lat="43.423293" lon="1.700803">
        <ele>174.0</ele>
        <time>2015-08-02T14:22:30Z</time>
      </trkpt>
      <trkpt lat="43.423186" lon="1.700739">
        <ele>173.8</ele>
        <time>2015-08-02T14:22:32Z</time>
      </trkpt>
      <trkpt lat="43.423103" lon="1.700665">
        <ele>172.7</ele>
        <time>2015-08-02T14:22:34Z</time>
      </trkpt>
      <trkpt lat="43.423011" lon="1.700583">
        <ele>171.9</ele>
        <time>2015-08-02T14:22:37Z</time>
      </trkpt>
      <trkpt lat="43.422944" lon="1.700514">
        <ele>172.3</ele>
        <time>2015-08-02T14:22:41Z</time>
      </trkpt>
      <trkpt lat="43.422878" lon="1.700432">
        <ele>180.5</ele>
        <time>2015-08-02T14:23:18Z</time>
      </trkpt>
      <trkpt lat="43.422790" lon="1.700358">
        <ele>180.3</ele>
        <time>2015-08-02T14:23:21Z</time>
      </trkpt>
      <trkpt lat="43.422691" lon="1.700287">
        <ele>180.5</ele>
        <time>2015-08-02T14:23:24Z</time>
      </trkpt>
      <trkpt lat="43.422584" lon="1.700217">
        <ele>180.3</ele>
        <time>2015-08-02T14:23:27Z</time>
      </trkpt>
      <trkpt lat="43.422472" lon="1.700142">
        <ele>179.5</ele>
        <time>2015-08-02T14:23:30Z</time>
      </trkpt>
      <trkpt lat="43.422362" lon="1.700076">
        <ele>179.8</ele>
        <time>2015-08-02T14:23:33Z</time>
      </trkpt>
      <trkpt lat="43.422263" lon="1.700019">
        <ele>179.4</ele>
        <time>2015-08-02T14:23:36Z</time>
      </trkpt>
      <trkpt lat="43.422168" lon="1.699970">
        <ele>179.7</ele>
        <time>2015-08-02T14:23:39Z</time>
      </trkpt>
      <trkpt lat="43.422059" lon="1.699913">
        <ele>179.0</ele>
        <time>2015-08-02T14:23:42Z</time>
      </trkpt>
      <trkpt lat="43.421953" lon="1.699854">
        <ele>178.8</ele>
        <time>2015-08-02T14:23:45Z</time>
      </trkpt>
      <trkpt lat="43.421854" lon="1.699796">
        <ele>177.9</ele>
        <time>2015-08-02T14:23:48Z</time>
      </trkpt>
      <trkpt lat="43.421754" lon="1.699732">
        <ele>177.4</ele>
        <time>2015-08-02T14:23:51Z</time>
      </trkpt>
      <trkpt lat="43.421661" lon="1.699654">
        <ele>177.2</ele>
        <time>2015-08-02T14:23:54Z</time>
      </trkpt>
      <trkpt lat="43.421578" lon="1.699578">
        <ele>177.2</ele>
        <time>2015-08-02T14:23:57Z</time>
      </trkpt>
      <trkpt lat="43.421498" lon="1.699509">
        <ele>177.1</ele>
        <time>2015-08-02T14:24:00Z</time>
      </trkpt>
      <trkpt lat="43.421411" lon="1.699439">
        <ele>176.5</ele>
        <time>2015-08-02T14:24:03Z</time>
      </trkpt>
      <trkpt lat="43.421313" lon="1.699370">
        <ele>176.0</ele>
        <time>2015-08-02T14:24:06Z</time>
      </trkpt>
      <trkpt lat="43.421232" lon="1.699301">
        <ele>175.5</ele>
        <time>2015-08-02T14:24:09Z</time>
      </trkpt>
      <trkpt lat="43.421125" lon="1.699243">
        <ele>174.5</ele>
        <time>2015-08-02T14:24:13Z</time>
      </trkpt>
      <trkpt lat="43.421030" lon="1.699205">
        <ele>173.9</ele>
        <time>2015-08-02T14:24:16Z</time>
      </trkpt>
      <trkpt lat="43.420915" lon="1.699179">
        <ele>173.4</ele>
        <time>2015-08-02T14:24:19Z</time>
      </trkpt>
      <trkpt lat="43.420799" lon="1.699156">
        <ele>172.6</ele>
        <time>2015-08-02T14:24:22Z</time>
      </trkpt>
      <trkpt lat="43.420692" lon="1.699188">
        <ele>171.4</ele>
        <time>2015-08-02T14:24:25Z</time>
      </trkpt>
      <trkpt lat="43.420606" lon="1.699275">
        <ele>168.4</ele>
        <time>2015-08-02T14:24:28Z</time>
      </trkpt>
      <trkpt lat="43.420524" lon="1.699378">
        <ele>164.6</ele>
        <time>2015-08-02T14:24:31Z</time>
      </trkpt>
      <trkpt lat="43.420452" lon="1.699481">
        <ele>161.5</ele>
        <time>2015-08-02T14:24:34Z</time>
      </trkpt>
      <trkpt lat="43.420369" lon="1.699588">
        <ele>161.6</ele>
        <time>2015-08-02T14:24:37Z</time>
      </trkpt>
      <trkpt lat="43.420285" lon="1.699684">
        <ele>161.5</ele>
        <time>2015-08-02T14:24:40Z</time>
      </trkpt>
      <trkpt lat="43.420213" lon="1.699773">
        <ele>161.8</ele>
        <time>2015-08-02T14:24:43Z</time>
      </trkpt>
      <trkpt lat="43.420142" lon="1.699868">
        <ele>161.9</ele>
        <time>2015-08-02T14:24:46Z</time>
      </trkpt>
      <trkpt lat="43.420052" lon="1.699974">
        <ele>162.1</ele>
        <time>2015-08-02T14:24:49Z</time>
      </trkpt>
      <trkpt lat="43.419960" lon="1.700079">
        <ele>162.2</ele>
        <time>2015-08-02T14:24:52Z</time>
      </trkpt>
      <trkpt lat="43.419871" lon="1.700153">
        <ele>162.4</ele>
        <time>2015-08-02T14:24:55Z</time>
      </trkpt>
      <trkpt lat="43.419781" lon="1.700168">
        <ele>162.6</ele>
        <time>2015-08-02T14:25:00Z</time>
      </trkpt>
      <trkpt lat="43.419733" lon="1.700167">
        <ele>163.0</ele>
        <time>2015-08-02T14:27:45Z</time>
      </trkpt>
      <trkpt lat="43.419737" lon="1.700165">
        <ele>162.9</ele>
        <time>2015-08-02T14:28:00Z</time>
      </trkpt>
      <trkpt lat="43.419616" lon="1.700213">
        <ele>168.9</ele>
        <time>2015-08-02T14:32:58Z</time>
      </trkpt>
      <trkpt lat="43.419591" lon="1.700235">
        <ele>168.8</ele>
        <time>2015-08-02T14:34:22Z</time>
      </trkpt>
      <trkpt lat="43.419494" lon="1.700307">
        <ele>168.6</ele>
        <time>2015-08-02T14:34:28Z</time>
      </trkpt>
      <trkpt lat="43.419398" lon="1.700380">
        <ele>168.8</ele>
        <time>2015-08-02T14:34:36Z</time>
      </trkpt>
      <trkpt lat="43.419302" lon="1.700447">
        <ele>169.4</ele>
        <time>2015-08-02T14:34:42Z</time>
      </trkpt>
      <trkpt lat="43.419213" lon="1.700511">
        <ele>170.3</ele>
        <time>2015-08-02T14:34:46Z</time>
      </trkpt>
      <trkpt lat="43.419123" lon="1.700586">
        <ele>170.4</ele>
        <time>2015-08-02T14:34:51Z</time>
      </trkpt>
      <trkpt lat="43.419037" lon="1.700649">
        <ele>170.1</ele>
        <time>2015-08-02T14:34:55Z</time>
      </trkpt>
      <trkpt lat="43.418947" lon="1.700724">
        <ele>170.0</ele>
        <time>2015-08-02T14:34:59Z</time>
      </trkpt>
      <trkpt lat="43.418859" lon="1.700793">
        <ele>171.1</ele>
        <time>2015-08-02T14:35:03Z</time>
      </trkpt>
      <trkpt lat="43.418778" lon="1.700854">
        <ele>170.3</ele>
        <time>2015-08-02T14:35:07Z</time>
      </trkpt>
      <trkpt lat="43.418689" lon="1.700922">
        <ele>169.2</ele>
        <time>2015-08-02T14:35:11Z</time>
      </trkpt>
      <trkpt lat="43.418590" lon="1.701000">
        <ele>168.4</ele>
        <time>2015-08-02T14:35:15Z</time>
      </trkpt>
      <trkpt lat="43.418490" lon="1.701072">
        <ele>167.8</ele>
        <time>2015-08-02T14:35:19Z</time>
      </trkpt>
      <trkpt lat="43.418397" lon="1.701146">
        <ele>168.0</ele>
        <time>2015-08-02T14:35:23Z</time>
      </trkpt>
      <trkpt lat="43.418311" lon="1.701215">
        <ele>169.0</ele>
        <time>2015-08-02T14:35:27Z</time>
      </trkpt>
      <trkpt lat="43.418215" lon="1.701288">
        <ele>169.5</ele>
        <time>2015-08-02T14:35:31Z</time>
      </trkpt>
      <trkpt lat="43.418133" lon="1.701352">
        <ele>169.6</ele>
        <time>2015-08-02T14:35:35Z</time>
      </trkpt>
      <trkpt lat="43.418045" lon="1.701410">
        <ele>169.2</ele>
        <time>2015-08-02T14:35:40Z</time>
      </trkpt>
      <trkpt lat="43.417946" lon="1.701479">
        <ele>170.0</ele>
        <time>2015-08-02T14:35:45Z</time>
      </trkpt>
      <trkpt lat="43.417845" lon="1.701559">
        <ele>170.9</ele>
        <time>2015-08-02T14:35:50Z</time>
      </trkpt>
      <trkpt lat="43.417753" lon="1.701638">
        <ele>172.3</ele>
        <time>2015-08-02T14:35:55Z</time>
      </trkpt>
      <trkpt lat="43.417661" lon="1.701737">
        <ele>173.0</ele>
        <time>2015-08-02T14:36:00Z</time>
      </trkpt>
      <trkpt lat="43.417574" lon="1.701824">
        <ele>173.6</ele>
        <time>2015-08-02T14:36:05Z</time>
      </trkpt>
      <trkpt lat="43.417492" lon="1.701917">
        <ele>174.5</ele>
        <time>2015-08-02T14:36:10Z</time>
      </trkpt>
      <trkpt lat="43.417405" lon="1.702006">
        <ele>175.3</ele>
        <time>2015-08-02T14:36:15Z</time>
      </trkpt>
      <trkpt lat="43.417316" lon="1.702088">
        <ele>176.4</ele>
        <time>2015-08-02T14:36:20Z</time>
      </trkpt>
      <trkpt lat="43.417224" lon="1.702177">
        <ele>176.6</ele>
        <time>2015-08-02T14:36:25Z</time>
      </trkpt>
      <trkpt lat="43.417133" lon="1.702253">
        <ele>176.8</ele>
        <time>2015-08-02T14:36:30Z</time>
      </trkpt>
      <trkpt lat="43.417048" lon="1.702337">
        <ele>177.4</ele>
        <time>2015-08-02T14:36:35Z</time>
      </trkpt>
      <trkpt lat="43.416960" lon="1.702422">
        <ele>178.0</ele>
        <time>2015-08-02T14:36:40Z</time>
      </trkpt>
      <trkpt lat="43.416880" lon="1.702523">
        <ele>177.6</ele>
        <time>2015-08-02T14:36:45Z</time>
      </trkpt>
      <trkpt lat="43.416800" lon="1.702625">
        <ele>177.1</ele>
        <time>2015-08-02T14:36:50Z</time>
      </trkpt>
      <trkpt lat="43.416731" lon="1.702737">
        <ele>177.7</ele>
        <time>2015-08-02T14:36:55Z</time>
      </trkpt>
      <trkpt lat="43.416650" lon="1.702874">
        <ele>180.9</ele>
        <time>2015-08-02T14:40:23Z</time>
      </trkpt>
      <trkpt lat="43.416579" lon="1.702980">
        <ele>180.9</ele>
        <time>2015-08-02T14:40:27Z</time>
      </trkpt>
      <trkpt lat="43.416496" lon="1.703092">
        <ele>181.0</ele>
        <time>2015-08-02T14:40:32Z</time>
      </trkpt>
      <trkpt lat="43.416434" lon="1.703202">
        <ele>180.9</ele>
        <time>2015-08-02T14:40:36Z</time>
      </trkpt>
      <trkpt lat="43.416365" lon="1.703330">
        <ele>181.4</ele>
        <time>2015-08-02T14:40:41Z</time>
      </trkpt>
      <trkpt lat="43.416298" lon="1.703447">
        <ele>181.9</ele>
        <time>2015-08-02T14:40:45Z</time>
      </trkpt>
      <trkpt lat="43.416247" lon="1.703571">
        <ele>182.9</ele>
        <time>2015-08-02T14:40:49Z</time>
      </trkpt>
      <trkpt lat="43.416197" lon="1.703701">
        <ele>183.3</ele>
        <time>2015-08-02T14:40:53Z</time>
      </trkpt>
      <trkpt lat="43.416154" lon="1.703853">
        <ele>183.6</ele>
        <time>2015-08-02T14:40:57Z</time>
      </trkpt>
      <trkpt lat="43.416118" lon="1.703968">
        <ele>183.8</ele>
        <time>2015-08-02T14:41:00Z</time>
      </trkpt>
      <trkpt lat="43.416079" lon="1.704099">
        <ele>183.5</ele>
        <time>2015-08-02T14:41:03Z</time>
      </trkpt>
      <trkpt lat="43.416042" lon="1.704239">
        <ele>184.0</ele>
        <time>2015-08-02T14:41:06Z</time>
      </trkpt>
      <trkpt lat="43.416000" lon="1.704382">
        <ele>184.1</ele>
        <time>2015-08-02T14:41:09Z</time>
      </trkpt>
      <trkpt lat="43.415959" lon="1.704508">
        <ele>183.9</ele>
        <time>2015-08-02T14:41:12Z</time>
      </trkpt>
      <trkpt lat="43.415917" lon="1.704650">
        <ele>183.8</ele>
        <time>2015-08-02T14:41:16Z</time>
      </trkpt>
      <trkpt lat="43.415878" lon="1.704795">
        <ele>183.0</ele>
        <time>2015-08-02T14:41:20Z</time>
      </trkpt>
      <trkpt lat="43.415840" lon="1.704912">
        <ele>182.4</ele>
        <time>2015-08-02T14:41:23Z</time>
      </trkpt>
      <trkpt lat="43.415798" lon="1.705034">
        <ele>182.4</ele>
        <time>2015-08-02T14:41:26Z</time>
      </trkpt>
      <trkpt lat="43.415709" lon="1.705113">
        <ele>183.3</ele>
        <time>2015-08-02T14:41:30Z</time>
      </trkpt>
      <trkpt lat="43.415619" lon="1.705078">
        <ele>183.7</ele>
        <time>2015-08-02T14:41:34Z</time>
      </trkpt>
      <trkpt lat="43.415515" lon="1.705006">
        <ele>183.5</ele>
        <time>2015-08-02T14:41:38Z</time>
      </trkpt>
      <trkpt lat="43.415428" lon="1.704945">
        <ele>182.9</ele>
        <time>2015-08-02T14:41:41Z</time>
      </trkpt>
      <trkpt lat="43.415333" lon="1.704878">
        <ele>181.8</ele>
        <time>2015-08-02T14:41:44Z</time>
      </trkpt>
      <trkpt lat="43.415231" lon="1.704810">
        <ele>181.1</ele>
        <time>2015-08-02T14:41:47Z</time>
      </trkpt>
      <trkpt lat="43.415132" lon="1.704742">
        <ele>180.4</ele>
        <time>2015-08-02T14:41:50Z</time>
      </trkpt>
      <trkpt lat="43.415044" lon="1.704678">
        <ele>180.3</ele>
        <time>2015-08-02T14:41:53Z</time>
      </trkpt>
      <trkpt lat="43.414952" lon="1.704612">
        <ele>179.9</ele>
        <time>2015-08-02T14:41:56Z</time>
      </trkpt>
      <trkpt lat="43.414838" lon="1.704536">
        <ele>180.5</ele>
        <time>2015-08-02T14:41:59Z</time>
      </trkpt>
      <trkpt lat="43.414724" lon="1.704462">
        <ele>180.4</ele>
        <time>2015-08-02T14:42:02Z</time>
      </trkpt>
      <trkpt lat="43.414629" lon="1.704436">
        <ele>180.1</ele>
        <time>2015-08-02T14:42:05Z</time>
      </trkpt>
      <trkpt lat="43.414525" lon="1.704465">
        <ele>180.0</ele>
        <time>2015-08-02T14:42:08Z</time>
      </trkpt>
      <trkpt lat="43.414429" lon="1.704542">
        <ele>179.3</ele>
        <time>2015-08-02T14:42:11Z</time>
      </trkpt>
      <trkpt lat="43.414351" lon="1.704614">
        <ele>179.1</ele>
        <time>2015-08-02T14:42:14Z</time>
      </trkpt>
      <trkpt lat="43.414275" lon="1.704690">
        <ele>178.8</ele>
        <time>2015-08-02T14:42:17Z</time>
      </trkpt>
      <trkpt lat="43.414200" lon="1.704777">
        <ele>178.4</ele>
        <time>2015-08-02T14:42:20Z</time>
      </trkpt>
      <trkpt lat="43.414143" lon="1.704872">
        <ele>178.6</ele>
        <time>2015-08-02T14:42:23Z</time>
      </trkpt>
      <trkpt lat="43.414067" lon="1.704989">
        <ele>178.7</ele>
        <time>2015-08-02T14:42:27Z</time>
      </trkpt>
      <trkpt lat="43.414009" lon="1.705122">
        <ele>179.6</ele>
        <time>2015-08-02T14:42:31Z</time>
      </trkpt>
      <trkpt lat="43.414041" lon="1.705270">
        <ele>183.2</ele>
        <time>2015-08-02T14:42:36Z</time>
      </trkpt>
      <trkpt lat="43.414103" lon="1.705409">
        <ele>184.4</ele>
        <time>2015-08-02T14:42:40Z</time>
      </trkpt>
      <trkpt lat="43.414172" lon="1.705555">
        <ele>185.4</ele>
        <time>2015-08-02T14:42:44Z</time>
      </trkpt>
      <trkpt lat="43.414223" lon="1.705681">
        <ele>185.4</ele>
        <time>2015-08-02T14:42:47Z</time>
      </trkpt>
      <trkpt lat="43.414276" lon="1.705805">
        <ele>184.8</ele>
        <time>2015-08-02T14:42:50Z</time>
      </trkpt>
      <trkpt lat="43.414332" lon="1.705915">
        <ele>184.3</ele>
        <time>2015-08-02T14:42:53Z</time>
      </trkpt>
      <trkpt lat="43.414380" lon="1.706032">
        <ele>183.6</ele>
        <time>2015-08-02T14:42:56Z</time>
      </trkpt>
      <trkpt lat="43.414435" lon="1.706137">
        <ele>182.3</ele>
        <time>2015-08-02T14:42:59Z</time>
      </trkpt>
      <trkpt lat="43.414484" lon="1.706246">
        <ele>181.8</ele>
        <time>2015-08-02T14:43:02Z</time>
      </trkpt>
      <trkpt lat="43.414543" lon="1.706390">
        <ele>181.9</ele>
        <time>2015-08-02T14:43:06Z</time>
      </trkpt>
      <trkpt lat="43.414591" lon="1.706505">
        <ele>181.5</ele>
        <time>2015-08-02T14:43:09Z</time>
      </trkpt>
      <trkpt lat="43.414648" lon="1.706611">
        <ele>181.7</ele>
        <time>2015-08-02T14:43:12Z</time>
      </trkpt>
      <trkpt lat="43.414700" lon="1.706713">
        <ele>181.5</ele>
        <time>2015-08-02T14:43:15Z</time>
      </trkpt>
      <trkpt lat="43.414758" lon="1.706806">
        <ele>182.1</ele>
        <time>2015-08-02T14:43:18Z</time>
      </trkpt>
      <trkpt lat="43.414841" lon="1.706897">
        <ele>180.2</ele>
        <time>2015-08-02T14:43:22Z</time>
      </trkpt>
      <trkpt lat="43.414930" lon="1.706987">
        <ele>180.7</ele>
        <time>2015-08-02T14:43:26Z</time>
      </trkpt>
      <trkpt lat="43.415022" lon="1.707065">
        <ele>181.6</ele>
        <time>2015-08-02T14:43:30Z</time>
      </trkpt>
      <trkpt lat="43.415124" lon="1.707152">
        <ele>182.6</ele>
        <time>2015-08-02T14:43:34Z</time>
      </trkpt>
      <trkpt lat="43.415212" lon="1.707215">
        <ele>183.5</ele>
        <time>2015-08-02T14:43:37Z</time>
      </trkpt>
      <trkpt lat="43.415300" lon="1.707281">
        <ele>183.9</ele>
        <time>2015-08-02T14:43:40Z</time>
      </trkpt>
      <trkpt lat="43.415401" lon="1.707359">
        <ele>184.4</ele>
        <time>2015-08-02T14:43:43Z</time>
      </trkpt>
      <trkpt lat="43.415520" lon="1.707428">
        <ele>184.1</ele>
        <time>2015-08-02T14:43:46Z</time>
      </trkpt>
      <trkpt lat="43.415603" lon="1.707479">
        <ele>183.4</ele>
        <time>2015-08-02T14:43:48Z</time>
      </trkpt>
      <trkpt lat="43.415689" lon="1.707540">
        <ele>183.3</ele>
        <time>2015-08-02T14:43:50Z</time>
      </trkpt>
      <trkpt lat="43.415774" lon="1.707598">
        <ele>183.1</ele>
        <time>2015-08-02T14:43:52Z</time>
      </trkpt>
      <trkpt lat="43.415890" lon="1.707679">
        <ele>182.4</ele>
        <time>2015-08-02T14:43:55Z</time>
      </trkpt>
      <trkpt lat="43.416002" lon="1.707771">
        <ele>183.1</ele>
        <time>2015-08-02T14:43:58Z</time>
      </trkpt>
      <trkpt lat="43.416116" lon="1.707860">
        <ele>183.9</ele>
        <time>2015-08-02T14:44:01Z</time>
      </trkpt>
      <trkpt lat="43.416226" lon="1.707946">
        <ele>184.7</ele>
        <time>2015-08-02T14:44:04Z</time>
      </trkpt>
      <trkpt lat="43.416327" lon="1.708028">
        <ele>185.4</ele>
        <time>2015-08-02T14:44:07Z</time>
      </trkpt>
      <trkpt lat="43.416431" lon="1.708104">
        <ele>186.0</ele>
        <time>2015-08-02T14:44:10Z</time>
      </trkpt>
      <trkpt lat="43.416535" lon="1.708186">
        <ele>186.9</ele>
        <time>2015-08-02T14:44:13Z</time>
      </trkpt>
      <trkpt lat="43.416635" lon="1.708253">
        <ele>187.4</ele>
        <time>2015-08-02T14:44:16Z</time>
      </trkpt>
      <trkpt lat="43.416734" lon="1.708325">
        <ele>187.9</ele>
        <time>2015-08-02T14:44:19Z</time>
      </trkpt>
      <trkpt lat="43.416832" lon="1.708394">
        <ele>188.0</ele>
        <time>2015-08-02T14:44:22Z</time>
      </trkpt>
      <trkpt lat="43.416927" lon="1.708471">
        <ele>188.1</ele>
        <time>2015-08-02T14:44:25Z</time>
      </trkpt>
      <trkpt lat="43.417002" lon="1.708570">
        <ele>189.1</ele>
        <time>2015-08-02T14:44:28Z</time>
      </trkpt>
      <trkpt lat="43.417024" lon="1.708695">
        <ele>190.6</ele>
        <time>2015-08-02T14:44:31Z</time>
      </trkpt>
      <trkpt lat="43.416984" lon="1.708830">
        <ele>191.3</ele>
        <time>2015-08-02T14:44:35Z</time>
      </trkpt>
      <trkpt lat="43.416916" lon="1.708947">
        <ele>192.0</ele>
        <time>2015-08-02T14:44:39Z</time>
      </trkpt>
      <trkpt lat="43.416848" lon="1.709064">
        <ele>192.2</ele>
        <time>2015-08-02T14:44:43Z</time>
      </trkpt>
      <trkpt lat="43.416769" lon="1.709184">
        <ele>191.9</ele>
        <time>2015-08-02T14:44:47Z</time>
      </trkpt>
      <trkpt lat="43.416691" lon="1.709306">
        <ele>190.4</ele>
        <time>2015-08-02T14:44:51Z</time>
      </trkpt>
      <trkpt lat="43.416627" lon="1.709401">
        <ele>188.5</ele>
        <time>2015-08-02T14:44:54Z</time>
      </trkpt>
      <trkpt lat="43.416583" lon="1.709512">
        <ele>187.6</ele>
        <time>2015-08-02T14:44:57Z</time>
      </trkpt>
      <trkpt lat="43.416547" lon="1.709637">
        <ele>186.8</ele>
        <time>2015-08-02T14:45:00Z</time>
      </trkpt>
      <trkpt lat="43.416495" lon="1.709760">
        <ele>186.5</ele>
        <time>2015-08-02T14:45:03Z</time>
      </trkpt>
      <trkpt lat="43.416410" lon="1.709858">
        <ele>185.3</ele>
        <time>2015-08-02T14:45:06Z</time>
      </trkpt>
      <trkpt lat="43.416323" lon="1.709961">
        <ele>184.8</ele>
        <time>2015-08-02T14:45:09Z</time>
      </trkpt>
      <trkpt lat="43.416255" lon="1.710092">
        <ele>184.2</ele>
        <time>2015-08-02T14:45:12Z</time>
      </trkpt>
      <trkpt lat="43.416219" lon="1.710249">
        <ele>183.2</ele>
        <time>2015-08-02T14:45:15Z</time>
      </trkpt>
      <trkpt lat="43.416189" lon="1.710416">
        <ele>183.4</ele>
        <time>2015-08-02T14:45:18Z</time>
      </trkpt>
      <trkpt lat="43.416165" lon="1.710580">
        <ele>184.6</ele>
        <time>2015-08-02T14:45:21Z</time>
      </trkpt>
      <trkpt lat="43.416147" lon="1.710732">
        <ele>185.4</ele>
        <time>2015-08-02T14:45:24Z</time>
      </trkpt>
      <trkpt lat="43.416125" lon="1.710898">
        <ele>185.9</ele>
        <time>2015-08-02T14:45:27Z</time>
      </trkpt>
      <trkpt lat="43.416104" lon="1.711082">
        <ele>185.5</ele>
        <time>2015-08-02T14:45:30Z</time>
      </trkpt>
      <trkpt lat="43.416089" lon="1.711210">
        <ele>185.6</ele>
        <time>2015-08-02T14:45:32Z</time>
      </trkpt>
      <trkpt lat="43.416076" lon="1.711343">
        <ele>185.8</ele>
        <time>2015-08-02T14:45:34Z</time>
      </trkpt>
      <trkpt lat="43.416065" lon="1.711475">
        <ele>186.1</ele>
        <time>2015-08-02T14:45:36Z</time>
      </trkpt>
      <trkpt lat="43.416053" lon="1.711608">
        <ele>186.2</ele>
        <time>2015-08-02T14:45:38Z</time>
      </trkpt>
      <trkpt lat="43.416043" lon="1.711741">
        <ele>186.7</ele>
        <time>2015-08-02T14:45:40Z</time>
      </trkpt>
      <trkpt lat="43.416027" lon="1.711874">
        <ele>187.4</ele>
        <time>2015-08-02T14:45:42Z</time>
      </trkpt>
      <trkpt lat="43.415996" lon="1.712002">
        <ele>188.5</ele>
        <time>2015-08-02T14:45:44Z</time>
      </trkpt>
      <trkpt lat="43.415947" lon="1.712112">
        <ele>190.0</ele>
        <time>2015-08-02T14:45:46Z</time>
      </trkpt>
      <trkpt lat="43.415874" lon="1.712192">
        <ele>191.3</ele>
        <time>2015-08-02T14:45:48Z</time>
      </trkpt>
      <trkpt lat="43.415786" lon="1.712250">
        <ele>192.2</ele>
        <time>2015-08-02T14:45:50Z</time>
      </trkpt>
      <trkpt lat="43.415696" lon="1.712299">
        <ele>193.6</ele>
        <time>2015-08-02T14:45:52Z</time>
      </trkpt>
      <trkpt lat="43.415614" lon="1.712359">
        <ele>195.0</ele>
        <time>2015-08-02T14:45:54Z</time>
      </trkpt>
      <trkpt lat="43.415543" lon="1.712445">
        <ele>196.2</ele>
        <time>2015-08-02T14:45:56Z</time>
      </trkpt>
      <trkpt lat="43.415486" lon="1.712552">
        <ele>197.6</ele>
        <time>2015-08-02T14:45:58Z</time>
      </trkpt>
      <trkpt lat="43.415442" lon="1.712676">
        <ele>198.3</ele>
        <time>2015-08-02T14:46:00Z</time>
      </trkpt>
      <trkpt lat="43.415408" lon="1.712806">
        <ele>198.9</ele>
        <time>2015-08-02T14:46:02Z</time>
      </trkpt>
      <trkpt lat="43.415376" lon="1.712933">
        <ele>199.8</ele>
        <time>2015-08-02T14:46:04Z</time>
      </trkpt>
      <trkpt lat="43.415341" lon="1.713054">
        <ele>199.9</ele>
        <time>2015-08-02T14:46:06Z</time>
      </trkpt>
      <trkpt lat="43.415305" lon="1.713177">
        <ele>200.1</ele>
        <time>2015-08-02T14:46:08Z</time>
      </trkpt>
      <trkpt lat="43.415268" lon="1.713294">
        <ele>200.4</ele>
        <time>2015-08-02T14:46:10Z</time>
      </trkpt>
      <trkpt lat="43.415203" lon="1.713446">
        <ele>201.6</ele>
        <time>2015-08-02T14:46:13Z</time>
      </trkpt>
      <trkpt lat="43.415127" lon="1.713583">
        <ele>203.0</ele>
        <time>2015-08-02T14:46:16Z</time>
      </trkpt>
      <trkpt lat="43.415050" lon="1.713719">
        <ele>204.0</ele>
        <time>2015-08-02T14:46:19Z</time>
      </trkpt>
      <trkpt lat="43.414982" lon="1.713835">
        <ele>204.5</ele>
        <time>2015-08-02T14:46:22Z</time>
      </trkpt>
      <trkpt lat="43.414910" lon="1.713966">
        <ele>205.6</ele>
        <time>2015-08-02T14:46:26Z</time>
      </trkpt>
      <trkpt lat="43.414848" lon="1.714102">
        <ele>205.1</ele>
        <time>2015-08-02T14:46:30Z</time>
      </trkpt>
      <trkpt lat="43.414798" lon="1.714234">
        <ele>206.0</ele>
        <time>2015-08-02T14:46:34Z</time>
      </trkpt>
      <trkpt lat="43.414737" lon="1.714375">
        <ele>206.9</ele>
        <time>2015-08-02T14:46:38Z</time>
      </trkpt>
      <trkpt lat="43.414674" lon="1.714501">
        <ele>206.9</ele>
        <time>2015-08-02T14:46:42Z</time>
      </trkpt>
      <trkpt lat="43.414605" lon="1.714631">
        <ele>206.6</ele>
        <time>2015-08-02T14:46:47Z</time>
      </trkpt>
      <trkpt lat="43.414551" lon="1.714750">
        <ele>206.3</ele>
        <time>2015-08-02T14:46:51Z</time>
      </trkpt>
      <trkpt lat="43.414496" lon="1.714861">
        <ele>206.7</ele>
        <time>2015-08-02T14:46:55Z</time>
      </trkpt>
      <trkpt lat="43.414441" lon="1.714991">
        <ele>207.1</ele>
        <time>2015-08-02T14:47:00Z</time>
      </trkpt>
      <trkpt lat="43.414382" lon="1.715139">
        <ele>207.3</ele>
        <time>2015-08-02T14:47:05Z</time>
      </trkpt>
      <trkpt lat="43.414322" lon="1.715295">
        <ele>208.2</ele>
        <time>2015-08-02T14:47:10Z</time>
      </trkpt>
      <trkpt lat="43.414275" lon="1.715422">
        <ele>208.9</ele>
        <time>2015-08-02T14:47:14Z</time>
      </trkpt>
      <trkpt lat="43.414223" lon="1.715555">
        <ele>210.0</ele>
        <time>2015-08-02T14:47:19Z</time>
      </trkpt>
      <trkpt lat="43.414159" lon="1.715694">
        <ele>209.7</ele>
        <time>2015-08-02T14:47:24Z</time>
      </trkpt>
      <trkpt lat="43.414105" lon="1.715822">
        <ele>210.5</ele>
        <time>2015-08-02T14:47:28Z</time>
      </trkpt>
      <trkpt lat="43.414023" lon="1.715851">
        <ele>211.8</ele>
        <time>2015-08-02T14:47:32Z</time>
      </trkpt>
      <trkpt lat="43.413927" lon="1.715823">
        <ele>211.8</ele>
        <time>2015-08-02T14:47:35Z</time>
      </trkpt>
      <trkpt lat="43.413813" lon="1.715800">
        <ele>212.4</ele>
        <time>2015-08-02T14:47:38Z</time>
      </trkpt>
      <trkpt lat="43.413688" lon="1.715772">
        <ele>212.4</ele>
        <time>2015-08-02T14:47:41Z</time>
      </trkpt>
      <trkpt lat="43.413553" lon="1.715755">
        <ele>212.6</ele>
        <time>2015-08-02T14:47:44Z</time>
      </trkpt>
      <trkpt lat="43.413463" lon="1.715743">
        <ele>212.7</ele>
        <time>2015-08-02T14:47:46Z</time>
      </trkpt>
      <trkpt lat="43.413325" lon="1.715747">
        <ele>212.5</ele>
        <time>2015-08-02T14:47:49Z</time>
      </trkpt>
      <trkpt lat="43.413228" lon="1.715756">
        <ele>212.6</ele>
        <time>2015-08-02T14:47:51Z</time>
      </trkpt>
      <trkpt lat="43.413093" lon="1.715766">
        <ele>212.9</ele>
        <time>2015-08-02T14:47:54Z</time>
      </trkpt>
      <trkpt lat="43.412999" lon="1.715779">
        <ele>213.6</ele>
        <time>2015-08-02T14:47:56Z</time>
      </trkpt>
      <trkpt lat="43.412905" lon="1.715796">
        <ele>213.7</ele>
        <time>2015-08-02T14:47:58Z</time>
      </trkpt>
      <trkpt lat="43.412770" lon="1.715833">
        <ele>214.3</ele>
        <time>2015-08-02T14:48:01Z</time>
      </trkpt>
      <trkpt lat="43.412649" lon="1.715876">
        <ele>215.9</ele>
        <time>2015-08-02T14:48:04Z</time>
      </trkpt>
      <trkpt lat="43.412530" lon="1.715907">
        <ele>216.1</ele>
        <time>2015-08-02T14:48:07Z</time>
      </trkpt>
      <trkpt lat="43.412424" lon="1.715936">
        <ele>215.6</ele>
        <time>2015-08-02T14:48:10Z</time>
      </trkpt>
      <trkpt lat="43.412319" lon="1.715970">
        <ele>215.7</ele>
        <time>2015-08-02T14:48:13Z</time>
      </trkpt>
      <trkpt lat="43.412196" lon="1.716010">
        <ele>215.5</ele>
        <time>2015-08-02T14:48:16Z</time>
      </trkpt>
      <trkpt lat="43.412062" lon="1.716034">
        <ele>214.1</ele>
        <time>2015-08-02T14:48:19Z</time>
      </trkpt>
      <trkpt lat="43.411923" lon="1.716061">
        <ele>213.5</ele>
        <time>2015-08-02T14:48:22Z</time>
      </trkpt>
      <trkpt lat="43.411825" lon="1.716083">
        <ele>212.7</ele>
        <time>2015-08-02T14:48:24Z</time>
      </trkpt>
      <trkpt lat="43.411723" lon="1.716100">
        <ele>212.0</ele>
        <time>2015-08-02T14:48:26Z</time>
      </trkpt>
      <trkpt lat="43.411617" lon="1.716127">
        <ele>211.2</ele>
        <time>2015-08-02T14:48:28Z</time>
      </trkpt>
      <trkpt lat="43.411505" lon="1.716155">
        <ele>210.6</ele>
        <time>2015-08-02T14:48:30Z</time>
      </trkpt>
      <trkpt lat="43.411389" lon="1.716186">
        <ele>210.0</ele>
        <time>2015-08-02T14:48:32Z</time>
      </trkpt>
      <trkpt lat="43.411294" lon="1.716227">
        <ele>209.7</ele>
        <time>2015-08-02T14:48:34Z</time>
      </trkpt>
      <trkpt lat="43.411216" lon="1.716305">
        <ele>209.5</ele>
        <time>2015-08-02T14:48:37Z</time>
      </trkpt>
      <trkpt lat="43.411259" lon="1.716402">
        <ele>208.3</ele>
        <time>2015-08-02T14:49:00Z</time>
      </trkpt>
      <trkpt lat="43.411361" lon="1.716438">
        <ele>208.4</ele>
        <time>2015-08-02T14:49:04Z</time>
      </trkpt>
      <trkpt lat="43.411444" lon="1.716483">
        <ele>208.7</ele>
        <time>2015-08-02T14:49:08Z</time>
      </trkpt>
      <trkpt lat="43.411537" lon="1.716522">
        <ele>207.8</ele>
        <time>2015-08-02T14:49:12Z</time>
      </trkpt>
      <trkpt lat="43.411637" lon="1.716572">
        <ele>207.6</ele>
        <time>2015-08-02T14:49:16Z</time>
      </trkpt>
      <trkpt lat="43.411728" lon="1.716619">
        <ele>207.6</ele>
        <time>2015-08-02T14:49:20Z</time>
      </trkpt>
      <trkpt lat="43.411825" lon="1.716669">
        <ele>208.2</ele>
        <time>2015-08-02T14:49:24Z</time>
      </trkpt>
      <trkpt lat="43.411898" lon="1.716732">
        <ele>209.0</ele>
        <time>2015-08-02T14:49:28Z</time>
      </trkpt>
      <trkpt lat="43.411897" lon="1.716873">
        <ele>208.8</ele>
        <time>2015-08-02T14:49:34Z</time>
      </trkpt>
      <trkpt lat="43.411886" lon="1.717000">
        <ele>208.2</ele>
        <time>2015-08-02T14:49:42Z</time>
      </trkpt>
      <trkpt lat="43.411871" lon="1.717123">
        <ele>205.5</ele>
        <time>2015-08-02T14:49:50Z</time>
      </trkpt>
      <trkpt lat="43.411874" lon="1.717257">
        <ele>202.9</ele>
        <time>2015-08-02T14:49:55Z</time>
      </trkpt>
      <trkpt lat="43.411863" lon="1.717389">
        <ele>200.5</ele>
        <time>2015-08-02T14:49:59Z</time>
      </trkpt>
      <trkpt lat="43.411849" lon="1.717519">
        <ele>197.4</ele>
        <time>2015-08-02T14:50:04Z</time>
      </trkpt>
      <trkpt lat="43.411824" lon="1.717656">
        <ele>194.0</ele>
        <time>2015-08-02T14:50:09Z</time>
      </trkpt>
      <trkpt lat="43.411819" lon="1.717801">
        <ele>192.0</ele>
        <time>2015-08-02T14:50:14Z</time>
      </trkpt>
      <trkpt lat="43.411797" lon="1.717928">
        <ele>188.3</ele>
        <time>2015-08-02T14:50:20Z</time>
      </trkpt>
      <trkpt lat="43.411761" lon="1.718050">
        <ele>185.0</ele>
        <time>2015-08-02T14:50:25Z</time>
      </trkpt>
      <trkpt lat="43.411688" lon="1.718164">
        <ele>181.6</ele>
        <time>2015-08-02T14:50:30Z</time>
      </trkpt>
      <trkpt lat="43.411656" lon="1.718282">
        <ele>177.2</ele>
        <time>2015-08-02T14:50:38Z</time>
      </trkpt>
      <trkpt lat="43.411644" lon="1.718428">
        <ele>175.2</ele>
        <time>2015-08-02T14:50:43Z</time>
      </trkpt>
      <trkpt lat="43.411698" lon="1.718567">
        <ele>174.9</ele>
        <time>2015-08-02T14:50:47Z</time>
      </trkpt>
      <trkpt lat="43.411771" lon="1.718683">
        <ele>174.5</ele>
        <time>2015-08-02T14:50:50Z</time>
      </trkpt>
      <trkpt lat="43.411821" lon="1.718780">
        <ele>173.9</ele>
        <time>2015-08-02T14:50:52Z</time>
      </trkpt>
      <trkpt lat="43.411863" lon="1.718959">
        <ele>174.4</ele>
        <time>2015-08-02T14:50:55Z</time>
      </trkpt>
      <trkpt lat="43.411853" lon="1.719094">
        <ele>174.6</ele>
        <time>2015-08-02T14:50:57Z</time>
      </trkpt>
      <trkpt lat="43.411830" lon="1.719229">
        <ele>175.8</ele>
        <time>2015-08-02T14:50:59Z</time>
      </trkpt>
      <trkpt lat="43.411810" lon="1.719363">
        <ele>176.0</ele>
        <time>2015-08-02T14:51:01Z</time>
      </trkpt>
      <trkpt lat="43.411792" lon="1.719490">
        <ele>176.3</ele>
        <time>2015-08-02T14:51:03Z</time>
      </trkpt>
      <trkpt lat="43.411808" lon="1.719636">
        <ele>176.8</ele>
        <time>2015-08-02T14:51:06Z</time>
      </trkpt>
      <trkpt lat="43.411749" lon="1.719781">
        <ele>177.8</ele>
        <time>2015-08-02T14:52:55Z</time>
      </trkpt>
      <trkpt lat="43.411691" lon="1.719888">
        <ele>178.3</ele>
        <time>2015-08-02T14:53:00Z</time>
      </trkpt>
      <trkpt lat="43.411592" lon="1.720032">
        <ele>177.9</ele>
        <time>2015-08-02T14:53:10Z</time>
      </trkpt>
      <trkpt lat="43.411503" lon="1.720031">
        <ele>178.0</ele>
        <time>2015-08-02T14:53:14Z</time>
      </trkpt>
      <trkpt lat="43.411429" lon="1.719959">
        <ele>179.1</ele>
        <time>2015-08-02T14:53:31Z</time>
      </trkpt>
      <trkpt lat="43.411352" lon="1.719906">
        <ele>179.7</ele>
        <time>2015-08-02T14:53:34Z</time>
      </trkpt>
      <trkpt lat="43.411270" lon="1.719841">
        <ele>180.1</ele>
        <time>2015-08-02T14:53:37Z</time>
      </trkpt>
      <trkpt lat="43.411160" lon="1.719764">
        <ele>180.5</ele>
        <time>2015-08-02T14:53:40Z</time>
      </trkpt>
      <trkpt lat="43.411073" lon="1.719708">
        <ele>180.9</ele>
        <time>2015-08-02T14:53:42Z</time>
      </trkpt>
      <trkpt lat="43.410984" lon="1.719642">
        <ele>180.7</ele>
        <time>2015-08-02T14:53:44Z</time>
      </trkpt>
      <trkpt lat="43.410900" lon="1.719579">
        <ele>180.3</ele>
        <time>2015-08-02T14:53:46Z</time>
      </trkpt>
      <trkpt lat="43.410774" lon="1.719535">
        <ele>178.3</ele>
        <time>2015-08-02T14:53:49Z</time>
      </trkpt>
      <trkpt lat="43.410697" lon="1.719623">
        <ele>177.9</ele>
        <time>2015-08-02T14:53:52Z</time>
      </trkpt>
      <trkpt lat="43.410662" lon="1.719741">
        <ele>178.2</ele>
        <time>2015-08-02T14:53:55Z</time>
      </trkpt>
      <trkpt lat="43.410632" lon="1.719858">
        <ele>177.8</ele>
        <time>2015-08-02T14:53:58Z</time>
      </trkpt>
      <trkpt lat="43.410562" lon="1.719973">
        <ele>178.7</ele>
        <time>2015-08-02T14:54:02Z</time>
      </trkpt>
      <trkpt lat="43.410471" lon="1.719982">
        <ele>180.6</ele>
        <time>2015-08-02T14:54:05Z</time>
      </trkpt>
      <trkpt lat="43.410372" lon="1.719960">
        <ele>182.4</ele>
        <time>2015-08-02T14:54:08Z</time>
      </trkpt>
      <trkpt lat="43.410263" lon="1.719927">
        <ele>184.4</ele>
        <time>2015-08-02T14:54:12Z</time>
      </trkpt>
      <trkpt lat="43.410143" lon="1.719900">
        <ele>184.8</ele>
        <time>2015-08-02T14:54:16Z</time>
      </trkpt>
      <trkpt lat="43.410037" lon="1.719868">
        <ele>184.3</ele>
        <time>2015-08-02T14:54:22Z</time>
      </trkpt>
      <trkpt lat="43.409939" lon="1.719847">
        <ele>184.8</ele>
        <time>2015-08-02T14:54:26Z</time>
      </trkpt>
      <trkpt lat="43.409842" lon="1.719822">
        <ele>185.1</ele>
        <time>2015-08-02T14:54:31Z</time>
      </trkpt>
      <trkpt lat="43.409750" lon="1.719784">
        <ele>185.4</ele>
        <time>2015-08-02T14:54:36Z</time>
      </trkpt>
      <trkpt lat="43.409662" lon="1.719762">
        <ele>185.7</ele>
        <time>2015-08-02T14:54:40Z</time>
      </trkpt>
      <trkpt lat="43.409556" lon="1.719739">
        <ele>185.4</ele>
        <time>2015-08-02T14:54:45Z</time>
      </trkpt>
      <trkpt lat="43.409455" lon="1.719719">
        <ele>184.8</ele>
        <time>2015-08-02T14:54:50Z</time>
      </trkpt>
      <trkpt lat="43.409352" lon="1.719694">
        <ele>184.2</ele>
        <time>2015-08-02T14:54:55Z</time>
      </trkpt>
      <trkpt lat="43.409267" lon="1.719676">
        <ele>183.4</ele>
        <time>2015-08-02T14:54:58Z</time>
      </trkpt>
      <trkpt lat="43.409158" lon="1.719642">
        <ele>184.0</ele>
        <time>2015-08-02T14:55:03Z</time>
      </trkpt>
      <trkpt lat="43.409050" lon="1.719635">
        <ele>184.3</ele>
        <time>2015-08-02T14:55:08Z</time>
      </trkpt>
      <trkpt lat="43.408969" lon="1.719680">
        <ele>184.9</ele>
        <time>2015-08-02T14:55:12Z</time>
      </trkpt>
      <trkpt lat="43.408929" lon="1.719787">
        <ele>184.9</ele>
        <time>2015-08-02T14:55:16Z</time>
      </trkpt>
      <trkpt lat="43.408902" lon="1.719927">
        <ele>185.6</ele>
        <time>2015-08-02T14:55:20Z</time>
      </trkpt>
      <trkpt lat="43.408886" lon="1.720048">
        <ele>186.6</ele>
        <time>2015-08-02T14:55:24Z</time>
      </trkpt>
      <trkpt lat="43.408869" lon="1.720195">
        <ele>186.9</ele>
        <time>2015-08-02T14:55:28Z</time>
      </trkpt>
      <trkpt lat="43.408845" lon="1.720355">
        <ele>186.5</ele>
        <time>2015-08-02T14:55:32Z</time>
      </trkpt>
      <trkpt lat="43.408823" lon="1.720500">
        <ele>186.7</ele>
        <time>2015-08-02T14:55:36Z</time>
      </trkpt>
      <trkpt lat="43.408799" lon="1.720636">
        <ele>187.6</ele>
        <time>2015-08-02T14:55:40Z</time>
      </trkpt>
      <trkpt lat="43.408773" lon="1.720774">
        <ele>187.6</ele>
        <time>2015-08-02T14:55:44Z</time>
      </trkpt>
      <trkpt lat="43.408751" lon="1.720924">
        <ele>188.2</ele>
        <time>2015-08-02T14:55:48Z</time>
      </trkpt>
      <trkpt lat="43.408716" lon="1.721066">
        <ele>188.2</ele>
        <time>2015-08-02T14:55:52Z</time>
      </trkpt>
      <trkpt lat="43.408688" lon="1.721205">
        <ele>187.9</ele>
        <time>2015-08-02T14:55:56Z</time>
      </trkpt>
      <trkpt lat="43.408658" lon="1.721354">
        <ele>188.2</ele>
        <time>2015-08-02T14:56:00Z</time>
      </trkpt>
      <trkpt lat="43.408629" lon="1.721491">
        <ele>188.0</ele>
        <time>2015-08-02T14:56:04Z</time>
      </trkpt>
      <trkpt lat="43.408573" lon="1.721593">
        <ele>188.2</ele>
        <time>2015-08-02T14:56:08Z</time>
      </trkpt>
      <trkpt lat="43.408471" lon="1.721585">
        <ele>188.0</ele>
        <time>2015-08-02T14:56:12Z</time>
      </trkpt>
      <trkpt lat="43.408385" lon="1.721546">
        <ele>188.5</ele>
        <time>2015-08-02T14:56:16Z</time>
      </trkpt>
      <trkpt lat="43.408298" lon="1.721510">
        <ele>187.9</ele>
        <time>2015-08-02T14:56:20Z</time>
      </trkpt>
      <trkpt lat="43.408203" lon="1.721478">
        <ele>188.1</ele>
        <time>2015-08-02T14:56:24Z</time>
      </trkpt>
      <trkpt lat="43.408093" lon="1.721448">
        <ele>188.5</ele>
        <time>2015-08-02T14:56:29Z</time>
      </trkpt>
      <trkpt lat="43.407991" lon="1.721409">
        <ele>187.7</ele>
        <time>2015-08-02T14:56:33Z</time>
      </trkpt>
      <trkpt lat="43.407874" lon="1.721361">
        <ele>186.8</ele>
        <time>2015-08-02T14:56:37Z</time>
      </trkpt>
      <trkpt lat="43.407758" lon="1.721312">
        <ele>186.1</ele>
        <time>2015-08-02T14:56:40Z</time>
      </trkpt>
      <trkpt lat="43.407640" lon="1.721251">
        <ele>185.7</ele>
        <time>2015-08-02T14:56:43Z</time>
      </trkpt>
      <trkpt lat="43.407533" lon="1.721199">
        <ele>185.2</ele>
        <time>2015-08-02T14:56:46Z</time>
      </trkpt>
      <trkpt lat="43.407435" lon="1.721162">
        <ele>184.6</ele>
        <time>2015-08-02T14:56:49Z</time>
      </trkpt>
      <trkpt lat="43.407343" lon="1.721126">
        <ele>184.5</ele>
        <time>2015-08-02T14:56:52Z</time>
      </trkpt>
      <trkpt lat="43.407238" lon="1.721065">
        <ele>185.0</ele>
        <time>2015-08-02T14:56:56Z</time>
      </trkpt>
      <trkpt lat="43.407147" lon="1.721014">
        <ele>184.5</ele>
        <time>2015-08-02T14:56:59Z</time>
      </trkpt>
      <trkpt lat="43.407050" lon="1.720974">
        <ele>185.3</ele>
        <time>2015-08-02T14:57:02Z</time>
      </trkpt>
      <trkpt lat="43.406957" lon="1.720928">
        <ele>185.3</ele>
        <time>2015-08-02T14:57:05Z</time>
      </trkpt>
      <trkpt lat="43.406862" lon="1.720894">
        <ele>185.3</ele>
        <time>2015-08-02T14:57:08Z</time>
      </trkpt>
      <trkpt lat="43.406746" lon="1.720846">
        <ele>185.1</ele>
        <time>2015-08-02T14:57:12Z</time>
      </trkpt>
      <trkpt lat="43.406644" lon="1.720799">
        <ele>184.4</ele>
        <time>2015-08-02T14:57:15Z</time>
      </trkpt>
      <trkpt lat="43.406522" lon="1.720741">
        <ele>183.4</ele>
        <time>2015-08-02T14:57:18Z</time>
      </trkpt>
      <trkpt lat="43.406426" lon="1.720696">
        <ele>182.6</ele>
        <time>2015-08-02T14:57:20Z</time>
      </trkpt>
      <trkpt lat="43.406317" lon="1.720642">
        <ele>181.5</ele>
        <time>2015-08-02T14:57:22Z</time>
      </trkpt>
      <trkpt lat="43.406201" lon="1.720582">
        <ele>180.6</ele>
        <time>2015-08-02T14:57:24Z</time>
      </trkpt>
      <trkpt lat="43.406080" lon="1.720519">
        <ele>179.8</ele>
        <time>2015-08-02T14:57:26Z</time>
      </trkpt>
      <trkpt lat="43.405964" lon="1.720462">
        <ele>179.7</ele>
        <time>2015-08-02T14:57:28Z</time>
      </trkpt>
      <trkpt lat="43.405864" lon="1.720447">
        <ele>179.0</ele>
        <time>2015-08-02T14:57:30Z</time>
      </trkpt>
      <trkpt lat="43.405781" lon="1.720539">
        <ele>178.4</ele>
        <time>2015-08-02T14:57:33Z</time>
      </trkpt>
      <trkpt lat="43.405713" lon="1.720649">
        <ele>179.1</ele>
        <time>2015-08-02T14:57:36Z</time>
      </trkpt>
      <trkpt lat="43.405626" lon="1.720702">
        <ele>179.5</ele>
        <time>2015-08-02T14:57:39Z</time>
      </trkpt>
      <trkpt lat="43.405531" lon="1.720706">
        <ele>180.1</ele>
        <time>2015-08-02T14:57:42Z</time>
      </trkpt>
      <trkpt lat="43.405405" lon="1.720672">
        <ele>181.4</ele>
        <time>2015-08-02T14:57:46Z</time>
      </trkpt>
      <trkpt lat="43.405299" lon="1.720633">
        <ele>182.6</ele>
        <time>2015-08-02T14:57:51Z</time>
      </trkpt>
      <trkpt lat="43.405193" lon="1.720611">
        <ele>184.0</ele>
        <time>2015-08-02T14:57:55Z</time>
      </trkpt>
      <trkpt lat="43.405082" lon="1.720579">
        <ele>185.1</ele>
        <time>2015-08-02T14:57:58Z</time>
      </trkpt>
      <trkpt lat="43.404979" lon="1.720555">
        <ele>187.1</ele>
        <time>2015-08-02T14:58:01Z</time>
      </trkpt>
      <trkpt lat="43.404885" lon="1.720526">
        <ele>188.9</ele>
        <time>2015-08-02T14:58:04Z</time>
      </trkpt>
      <trkpt lat="43.404765" lon="1.720486">
        <ele>190.1</ele>
        <time>2015-08-02T14:58:08Z</time>
      </trkpt>
      <trkpt lat="43.404676" lon="1.720453">
        <ele>191.5</ele>
        <time>2015-08-02T14:58:11Z</time>
      </trkpt>
      <trkpt lat="43.404586" lon="1.720423">
        <ele>191.9</ele>
        <time>2015-08-02T14:58:14Z</time>
      </trkpt>
      <trkpt lat="43.404501" lon="1.720377">
        <ele>191.9</ele>
        <time>2015-08-02T14:58:17Z</time>
      </trkpt>
      <trkpt lat="43.404402" lon="1.720304">
        <ele>191.6</ele>
        <time>2015-08-02T14:58:21Z</time>
      </trkpt>
      <trkpt lat="43.404310" lon="1.720247">
        <ele>190.8</ele>
        <time>2015-08-02T14:58:24Z</time>
      </trkpt>
      <trkpt lat="43.404204" lon="1.720162">
        <ele>190.2</ele>
        <time>2015-08-02T14:58:27Z</time>
      </trkpt>
      <trkpt lat="43.404105" lon="1.720083">
        <ele>189.9</ele>
        <time>2015-08-02T14:58:30Z</time>
      </trkpt>
      <trkpt lat="43.404064" lon="1.720016">
        <ele>190.8</ele>
        <time>2015-08-02T14:58:49Z</time>
      </trkpt>
    </trkseg>
  </trk>
</gpx>

